AA4246 / N212NN 7700 Squawk Report (22nd of September, 2021)

Aircraft E75L Reg No. N212NN Age N/A
Model Emb-175 Jet engines 2 First flight N/A
Registered 05-04-20 Rollout N/A Delivered 09-09-15
Construction No. 17000504 Line No. N/A Series 200LR
ADSHEX A1C229 Airline name Envoy Air Owner Envoy Air
Airfield based Dallas-Fort Worth~TX~N First tracked N/A

Flight history for N212NN

Route Flight No Date Playback
Adams Fld (LIT) - Dallas Fort Worth (DFW) AA3865 2021-10-22 02:54:00
Charlotte Douglas (CLT) - Adams Fld (LIT) AA3979 2021-10-22 00:40:00
Charlotte Douglas (CLT) - Tulsa Intl (TUL) - Charlotte Douglas (CLT) AA3552 2021-10-21 21:22:00
Springfield Branson Natl (SGF) - Charlotte Douglas (CLT) AA4083 2021-10-21 14:08:00
Charlotte Douglas (CLT) - Springfield Branson Natl (SGF) AA3879 2021-10-21 03:27:00
NW Arkansas Regional (XNA) - Charlotte Douglas (CLT) AA4032 2021-10-20 23:56:00
Dallas Fort Worth (DFW) - NW Arkansas Regional (XNA) AA3890 2021-10-20 20:59:00
Cincinnati Northern Kentucky Intl (CVG) - Dallas Fort Worth (DFW) AA3567 2021-10-20 18:49:00
Ronald Reagan Washington Natl (DCA) - Cincinnati Northern Kentucky Intl (CVG) AA4202 2021-10-20 15:28:00
Port Columbus (CMH) - Ronald Reagan Washington Natl (DCA) AA4035 2021-10-20 13:10:00
Ronald Reagan Washington Natl (DCA) - Port Columbus (CMH) AA4042 2021-10-20 11:58:00
Port Columbus (CMH) - Ronald Reagan Washington Natl (DCA) AA3941 2021-10-19 23:07:00
Chicago Ohare Intl (ORD) - Port Columbus (CMH) AA3599 2021-10-19 22:02:00
Chicago Ohare Intl (ORD) - Raleigh Durham Intl (RDU) - Chicago Ohare Intl (ORD) AA4096 2021-10-19 20:14:00
Tulsa Intl (TUL) - Chicago Ohare Intl (ORD) AA3513 2021-10-19 13:19:00
Chicago Ohare Intl (ORD) - Tulsa Intl (TUL) AA3537 2021-10-19 02:00:00
Chicago Ohare Intl (ORD) - Cleveland Hopkins Intl (CLE) - Chicago Ohare Intl (ORD) AA3543 2021-10-19 00:22:00
Chicago Ohare Intl (ORD) - Pittsburgh Intl (PIT) - Chicago Ohare Intl (ORD) AA3516 2021-10-18 19:19:00
Tulsa Intl (TUL) - Chicago Ohare Intl (ORD) AA3513 2021-10-18 14:43:00
Chicago Ohare Intl (ORD) - Tulsa Intl (TUL) AA3537 2021-10-18 11:44:00
Time Lat Lon Altitude Heading Speed Vertical Rate
2021-09-22 14:50:54 GMT 31.970819 -102.278397 3,525 113 115 -704
2021-09-22 14:50:48 GMT 31.972229 -102.282166 3,600 113 115 -640
2021-09-22 14:50:37 GMT 31.974701 -102.288925 3,725 113 114 -640
2021-09-22 14:50:26 GMT 31.976761 -102.294418 3,825 113 115 -768
2021-09-22 14:50:16 GMT 31.979013 -102.300484 3,925 113 114 -512
2021-09-22 14:50:05 GMT 31.981201 -102.306366 4,025 113 113 -576
2021-09-22 14:49:55 GMT 31.983490 -102.312431 4,125 113 114 -512
2021-09-22 14:49:44 GMT 31.985624 -102.318253 4,200 113 115 -576
2021-09-22 14:49:34 GMT 31.987976 -102.324409 4,300 114 117 -576
2021-09-22 14:49:22 GMT 31.990604 -102.331429 4,425 113 123 -640
2021-09-22 14:49:14 GMT 31.992886 -102.337479 4,475 113 139 -64
2021-09-22 14:49:02 GMT 31.995575 -102.344894 4,500 113 152 -192
2021-09-22 14:48:53 GMT 31.998657 -102.353394 4,525 113 171 -320
2021-09-22 14:48:42 GMT 32.002289 -102.362419 4,675 118 181 -896
2021-09-22 14:48:30 GMT 32.008759 -102.372795 4,825 134 190 -576
2021-09-22 14:48:19 GMT 32.015533 -102.379066 4,925 145 202 -896
2021-09-22 14:48:10 GMT 32.023750 -102.385796 5,125 145 204 -1280
2021-09-22 14:47:58 GMT 32.032127 -102.392021 5,325 150 207 -1344
2021-09-22 14:47:49 GMT 32.041813 -102.395103 5,575 183 215 -1280
2021-09-22 14:47:38 GMT 32.052475 -102.393730 5,775 190 219 -1088
2021-09-22 14:47:29 GMT 32.061768 -102.392029 5,950 189 223 -1024
2021-09-22 14:47:26 GMT 32.063416 -102.391701 5,975 189 224 -1024
2021-09-22 14:47:17 GMT 32.074352 -102.389885 6,150 188 227 -1152
2021-09-22 14:47:05 GMT 32.086224 -102.388092 6,400 188 231 -1344
2021-09-22 14:46:56 GMT 32.096695 -102.386482 6,650 188 232 -1472
2021-09-22 14:46:44 GMT 32.108150 -102.384674 6,900 189 234 -1344
2021-09-22 14:46:34 GMT 32.119740 -102.382263 7,125 195 236 -1216
2021-09-22 14:46:23 GMT 32.130615 -102.376427 7,300 215 239 -832
2021-09-22 14:46:14 GMT 32.137848 -102.367142 7,450 240 241 -832
2021-09-22 14:46:05 GMT 32.141712 -102.355804 7,500 257 242 0
2021-09-22 14:46:02 GMT 32.141968 -102.354347 7,500 264 241 64
2021-09-22 14:45:53 GMT 32.142014 -102.340721 7,500 275 239 0
2021-09-22 14:45:44 GMT 32.140877 -102.323746 7,500 275 240 0
2021-09-22 14:45:33 GMT 32.140366 -102.315727 7,500 275 240 0
2021-09-22 14:45:29 GMT 32.140083 -102.311188 7,500 275 240 -64
2021-09-22 14:45:23 GMT 32.139431 -102.301270 7,500 275 240 0
2021-09-22 14:45:16 GMT 32.138828 -102.292915 7,500 275 240 0
2021-09-22 14:45:11 GMT 32.138454 -102.287086 7,500 275 240 0
2021-09-22 14:45:08 GMT 32.138214 -102.283211 7,500 275 240 0
2021-09-22 14:45:00 GMT 32.137436 -102.271622 7,525 275 240 -64
2021-09-22 14:44:48 GMT 32.136475 -102.257004 7,500 275 240 64
2021-09-22 14:44:38 GMT 32.135567 -102.243141 7,500 275 240 0
2021-09-22 14:44:27 GMT 32.134686 -102.228958 7,500 275 241 64
2021-09-22 14:44:18 GMT 32.133938 -102.216293 7,500 275 242 64
2021-09-22 14:44:06 GMT 32.133057 -102.201660 7,500 275 239 64
2021-09-22 14:43:57 GMT 32.132309 -102.188660 7,500 274 239 0
2021-09-22 14:43:45 GMT 32.131531 -102.175323 7,500 275 238 64
2021-09-22 14:43:36 GMT 32.130707 -102.161865 7,500 275 237 0
2021-09-22 14:43:24 GMT 32.129883 -102.148026 7,525 275 238 64
2021-09-22 14:43:13 GMT 32.129005 -102.133614 7,500 275 237 -64
2021-09-22 14:43:05 GMT 32.128235 -102.121048 7,500 275 238 0
2021-09-22 14:42:59 GMT 32.127914 -102.115776 7,500 275 238 0
2021-09-22 14:42:55 GMT 32.127560 -102.110352 7,500 275 238 0
2021-09-22 14:42:52 GMT 32.127319 -102.105888 7,500 275 238 0
2021-09-22 14:42:43 GMT 32.126541 -102.093422 7,500 275 239 -64
2021-09-22 14:42:33 GMT 32.125793 -102.081711 7,500 275 239 0
2021-09-22 14:42:24 GMT 32.124985 -102.068863 7,525 275 241 0
2021-09-22 14:42:19 GMT 32.124535 -102.061813 7,500 275 241 64
2021-09-22 14:42:14 GMT 32.124161 -102.055794 7,500 275 241 0
2021-09-22 14:42:10 GMT 32.123886 -102.051125 7,500 275 241 -64
2021-09-22 14:42:04 GMT 32.123325 -102.041908 7,525 275 242 -64
2021-09-22 14:42:01 GMT 32.123093 -102.038101 7,525 275 242 0
2021-09-22 14:41:52 GMT 32.122467 -102.027832 7,500 275 243 0
2021-09-22 14:41:49 GMT 32.122238 -102.024094 7,500 275 243 -64
2021-09-22 14:41:43 GMT 32.121651 -102.014389 7,500 275 243 0
2021-09-22 14:41:40 GMT 32.121414 -102.010361 7,500 275 243 0
2021-09-22 14:41:31 GMT 32.120819 -102.000313 7,500 275 243 0
2021-09-22 14:41:28 GMT 32.120544 -101.996025 7,500 275 243 0
2021-09-22 14:41:22 GMT 32.119949 -101.985977 7,500 275 243 -64
2021-09-22 14:41:19 GMT 32.119694 -101.981995 7,500 275 243 -64
2021-09-22 14:41:11 GMT 32.119183 -101.973022 7,525 274 242 -192
2021-09-22 14:41:08 GMT 32.118904 -101.967812 7,525 274 241 64
2021-09-22 14:41:01 GMT 32.118389 -101.958900 7,500 274 241 192
2021-09-22 14:40:56 GMT 32.118073 -101.953781 7,500 274 241 0
2021-09-22 14:40:50 GMT 32.117615 -101.945381 7,500 275 243 -128
2021-09-22 14:40:47 GMT 32.117271 -101.939781 7,500 274 246 -64
2021-09-22 14:40:39 GMT 32.116699 -101.930275 7,500 275 254 0
2021-09-22 14:40:36 GMT 32.116436 -101.926109 7,500 275 257 64
2021-09-22 14:40:29 GMT 32.115829 -101.916466 7,500 275 265 0
2021-09-22 14:40:26 GMT 32.115505 -101.911255 7,500 275 270 -128
2021-09-22 14:40:18 GMT 32.114807 -101.900551 7,525 275 276 -512
2021-09-22 14:40:14 GMT 32.114479 -101.895111 7,575 275 279 -960
2021-09-22 14:40:08 GMT 32.113815 -101.885063 7,700 275 282 -1024
2021-09-22 14:40:05 GMT 32.113457 -101.878578 7,750 274 284 -1024
2021-09-22 14:39:58 GMT 32.112896 -101.868652 7,875 274 288 -1024
2021-09-22 14:39:54 GMT 32.112431 -101.859856 7,975 274 290 -1024
2021-09-22 14:39:46 GMT 32.111984 -101.850784 8,050 274 293 -1024
2021-09-22 14:39:41 GMT 32.111595 -101.843208 8,150 274 296 -1024
2021-09-22 14:39:37 GMT 32.111206 -101.835129 8,225 274 299 -896
2021-09-22 14:39:32 GMT 32.110703 -101.826012 8,325 274 302 -1152
2021-09-22 14:39:25 GMT 32.110153 -101.816895 8,450 275 304 -1472
2021-09-22 14:39:21 GMT 32.109684 -101.809235 8,575 275 305 -1728
2021-09-22 14:39:10 GMT 32.108566 -101.791359 8,900 275 305 -1920
2021-09-22 14:39:04 GMT 32.108002 -101.782181 9,075 275 305 -1920
2021-09-22 14:38:59 GMT 32.107544 -101.774216 9,225 275 305 -1984
2021-09-22 14:38:54 GMT 32.106983 -101.765236 9,425 275 305 -2112
2021-09-22 14:38:49 GMT 32.106426 -101.756607 9,600 275 305 -2304
2021-09-22 14:38:43 GMT 32.105728 -101.747353 9,825 276 303 -2240
2021-09-22 14:38:38 GMT 32.105076 -101.739449 9,975 276 302 -2048
2021-09-22 14:38:33 GMT 32.104332 -101.730873 10,150 277 302 -1856
2021-09-22 14:38:24 GMT 32.102703 -101.713783 10,400 277 307 -1152
2021-09-22 14:38:17 GMT 32.101730 -101.704117 10,475 277 310 -768
2021-09-22 14:38:12 GMT 32.100979 -101.696350 10,525 277 315 -448
2021-09-22 14:38:06 GMT 32.099861 -101.685303 10,575 277 321 -384
2021-09-22 14:38:02 GMT 32.099026 -101.676895 10,600 277 326 -384
2021-09-22 14:37:56 GMT 32.098141 -101.668381 10,625 277 333 -512
2021-09-22 14:37:52 GMT 32.097198 -101.659348 10,675 278 338 -768
2021-09-22 14:37:47 GMT 32.096138 -101.649376 10,800 278 342 -1344
2021-09-22 14:37:42 GMT 32.095139 -101.640068 10,950 278 344 -2112
2021-09-22 14:37:36 GMT 32.092941 -101.619965 11,275 278 345 -2688
2021-09-22 14:37:30 GMT 32.092941 -101.619965 11,400 278 344 -2944
2021-09-22 14:37:24 GMT 32.091763 -101.608398 11,775 277 343 -2688
2021-09-22 14:37:21 GMT 32.091019 -101.601006 11,900 277 343 -2816
2021-09-22 14:37:14 GMT 32.089901 -101.589844 12,175 277 343 -2560
2021-09-22 14:37:10 GMT 32.089096 -101.581459 12,375 277 343 -2496
2021-09-22 14:37:03 GMT 32.087952 -101.569427 12,650 277 343 -2560
2021-09-22 14:37:00 GMT 32.087296 -101.561707 12,825 276 343 -2624
2021-09-22 14:36:53 GMT 32.086411 -101.550552 13,075 275 343 -2560
2021-09-22 14:36:49 GMT 32.085896 -101.542374 13,225 274 343 -2240
2021-09-22 14:36:43 GMT 32.085434 -101.532127 13,400 272 346 -1600
2021-09-22 14:36:39 GMT 32.085480 -101.521530 13,500 268 349 -704
2021-09-22 14:36:34 GMT 32.085983 -101.513893 13,500 263 352 0
2021-09-22 14:36:27 GMT 32.087711 -101.502129 13,500 258 353 0
2021-09-22 14:36:22 GMT 32.089809 -101.491699 13,500 257 353 0
2021-09-22 14:36:18 GMT 32.091568 -101.482964 13,500 257 353 64
2021-09-22 14:36:12 GMT 32.093719 -101.472473 13,500 257 353 64
2021-09-22 14:36:07 GMT 32.095551 -101.463463 13,500 257 354 64
2021-09-22 14:36:01 GMT 32.098232 -101.450279 13,500 257 355 0
2021-09-22 14:35:57 GMT 32.099628 -101.443497 13,500 257 356 -64
2021-09-22 14:35:50 GMT 32.102142 -101.431000 13,575 257 358 -1024
2021-09-22 14:35:46 GMT 32.103516 -101.424187 13,625 257 358 -1408
2021-09-22 14:35:42 GMT 32.104889 -101.417320 13,725 257 358 -1792
2021-09-22 14:35:39 GMT 32.106239 -101.410873 13,850 257 358 -1792
2021-09-22 14:35:36 GMT 32.107777 -101.403252 13,950 257 358 -1792
2021-09-22 14:35:32 GMT 32.108963 -101.397545 14,050 257 358 -1792
2021-09-22 14:35:29 GMT 32.110336 -101.390732 14,150 257 358 -1792
2021-09-22 14:35:24 GMT 32.111919 -101.382904 14,275 257 358 -1792
2021-09-22 14:35:21 GMT 32.113037 -101.377411 14,375 257 359 -1792
2021-09-22 14:35:18 GMT 32.114319 -101.370956 14,475 257 359 -1792
2021-09-22 14:35:14 GMT 32.115643 -101.364464 14,575 257 359 -1856
2021-09-22 14:35:11 GMT 32.117321 -101.356110 14,700 257 358 -1856
2021-09-22 14:35:08 GMT 32.118301 -101.351295 14,775 257 359 -1792
2021-09-22 14:35:04 GMT 32.119766 -101.344261 14,900 257 359 -1792
2021-09-22 14:35:01 GMT 32.120903 -101.338509 14,975 257 359 -1792
2021-09-22 14:34:57 GMT 32.122375 -101.331245 15,100 257 360 -1856
2021-09-22 14:34:53 GMT 32.123795 -101.324379 15,200 257 361 -1856
2021-09-22 14:34:50 GMT 32.125095 -101.317879 15,300 257 361 -1856
2021-09-22 14:34:47 GMT 32.126587 -101.310593 15,425 257 363 -1856
2021-09-22 14:34:43 GMT 32.127823 -101.304382 15,525 257 364 -1856
2021-09-22 14:34:40 GMT 32.129242 -101.297462 15,625 257 365 -1856
2021-09-22 14:34:36 GMT 32.130589 -101.290863 15,725 257 366 -1792
2021-09-22 14:34:30 GMT 32.132915 -101.279144 15,900 257 367 -1792
2021-09-22 14:34:26 GMT 32.134964 -101.269112 16,050 257 369 -1792
2021-09-22 14:34:23 GMT 32.136219 -101.262894 16,150 257 369 -1792
2021-09-22 14:34:19 GMT 32.137199 -101.258018 16,350 257 371 -1792
2021-09-22 14:34:15 GMT 32.138966 -101.249382 16,375 257 371 -1792
2021-09-22 14:34:12 GMT 32.140224 -101.243103 16,450 257 371 -1856
2021-09-22 14:34:08 GMT 32.141556 -101.236435 16,575 257 371 -1792
2021-09-22 14:34:05 GMT 32.143112 -101.228577 16,675 257 371 -1792
2021-09-22 14:34:02 GMT 32.144505 -101.221802 16,775 257 371 -1792
2021-09-22 14:33:58 GMT 32.146229 -101.213173 16,900 257 371 -1792
2021-09-22 14:33:53 GMT 32.147346 -101.207626 17,000 257 371 -1792
2021-09-22 14:33:49 GMT 32.149338 -101.197983 17,150 257 372 -1856
2021-09-22 14:33:44 GMT 32.151398 -101.187546 17,300 257 372 -1856
2021-09-22 14:33:39 GMT 32.153259 -101.178474 17,450 257 372 -1792
2021-09-22 14:33:33 GMT 32.155563 -101.167053 17,625 257 373 -1792
2021-09-22 14:33:28 GMT 32.159962 -101.145180 18,000 257 374 -1792
2021-09-22 14:33:23 GMT 32.159962 -101.145180 17,950 257 374 -1792
2021-09-22 14:33:18 GMT 32.161404 -101.138008 18,225 257 377 -1792
2021-09-22 14:33:12 GMT 32.164032 -101.124809 18,250 257 377 -1792
2021-09-22 14:33:07 GMT 32.166016 -101.115028 18,400 257 378 -1792
2021-09-22 14:33:02 GMT 32.168247 -101.103760 18,575 257 378 -1792
2021-09-22 14:32:57 GMT 32.169876 -101.095573 18,700 257 378 -1792
2021-09-22 14:32:51 GMT 32.172546 -101.082458 18,900 257 379 -1856
2021-09-22 14:32:48 GMT 32.173927 -101.075508 19,000 257 379 -1856
2021-09-22 14:32:41 GMT 32.176674 -101.061829 19,200 257 380 -1792
2021-09-22 14:32:37 GMT 32.178040 -101.054993 19,300 257 381 -1792
2021-09-22 14:32:30 GMT 32.180969 -101.040329 19,525 257 381 -1792
2021-09-22 14:32:27 GMT 32.182121 -101.034424 19,600 257 381 -1792
2021-09-22 14:32:20 GMT 32.185242 -101.018837 19,850 257 381 -1856
2021-09-22 14:32:16 GMT 32.186684 -101.011719 19,950 257 382 -1856
2021-09-22 14:32:07 GMT 32.190407 -100.992943 20,225 257 382 -1792
2021-09-22 14:31:59 GMT 32.193851 -100.975899 20,475 257 383 -1792
2021-09-22 14:31:55 GMT 32.194969 -100.970238 20,575 257 383 -1792
2021-09-22 14:31:46 GMT 32.199020 -100.950005 20,850 257 385 -1856
2021-09-22 14:31:38 GMT 32.202209 -100.933868 21,100 257 387 -1792
2021-09-22 14:31:34 GMT 32.203674 -100.926506 21,200 257 387 -1792
2021-09-22 14:31:25 GMT 32.207611 -100.906898 21,500 257 390 -1792
2021-09-22 14:31:17 GMT 32.210983 -100.889862 21,750 257 392 -1792
2021-09-22 14:31:13 GMT 32.212006 -100.884705 21,825 257 392 -1792
2021-09-22 14:31:04 GMT 32.216431 -100.862343 22,125 257 395 -1792
2021-09-22 14:30:56 GMT 32.219501 -100.846977 22,400 257 397 -1792
2021-09-22 14:30:53 GMT 32.220665 -100.841095 22,450 257 397 -1792
2021-09-22 14:30:43 GMT 32.225235 -100.818016 22,775 257 399 -1792
2021-09-22 14:30:35 GMT 32.228439 -100.801704 23,025 257 401 -1792
2021-09-22 14:30:32 GMT 32.229446 -100.796593 23,075 257 401 -1792
2021-09-22 14:30:24 GMT 32.233017 -100.778687 23,325 257 402 -1856
2021-09-22 14:30:21 GMT 32.234024 -100.773575 23,400 257 402 -1856
2021-09-22 14:30:14 GMT 32.237274 -100.757263 23,650 257 404 -1792
2021-09-22 14:30:10 GMT 32.238464 -100.751274 23,700 257 404 -1856
2021-09-22 14:30:03 GMT 32.241707 -100.734596 23,925 257 403 -1408
2021-09-22 14:29:59 GMT 32.243179 -100.727219 23,975 257 403 -960
2021-09-22 14:29:53 GMT 32.246315 -100.711388 24,000 257 402 0
2021-09-22 14:29:50 GMT 32.247108 -100.707245 24,000 257 402 128
2021-09-22 14:29:42 GMT 32.250507 -100.690033 24,000 257 402 -64
2021-09-22 14:29:39 GMT 32.251671 -100.684036 24,000 257 403 -192
2021-09-22 14:29:32 GMT 32.255070 -100.666885 24,100 257 403 -1216
2021-09-22 14:29:28 GMT 32.256638 -100.658882 24,175 257 404 -1664
2021-09-22 14:29:20 GMT 32.259521 -100.644157 24,400 258 405 -1856
2021-09-22 14:29:17 GMT 32.261120 -100.636002 24,500 257 406 -1856
2021-09-22 14:29:09 GMT 32.264893 -100.616997 24,775 257 408 -1856
2021-09-22 14:29:06 GMT 32.265591 -100.613464 24,800 258 409 -1856
2021-09-22 14:29:01 GMT 32.267918 -100.601418 25,025 258 410 -1792
2021-09-22 14:28:58 GMT 32.269226 -100.594772 25,075 257 410 -1792
2021-09-22 14:28:51 GMT 32.272339 -100.579063 25,350 257 412 -1792
2021-09-22 14:28:48 GMT 32.273895 -100.571152 25,400 257 412 -1792
2021-09-22 14:28:41 GMT 32.276642 -100.557091 25,600 258 414 -1792
2021-09-22 14:28:37 GMT 32.278198 -100.549179 25,700 258 414 -1856
2021-09-22 14:28:31 GMT 32.281185 -100.533707 25,900 258 416 -1856
2021-09-22 14:28:27 GMT 32.282906 -100.524956 26,025 258 416 -1856
2021-09-22 14:28:20 GMT 32.285515 -100.511505 26,225 258 418 -1856
2021-09-22 14:28:16 GMT 32.287281 -100.502647 26,350 258 418 -1792
2021-09-22 14:28:09 GMT 32.290146 -100.487930 26,550 258 420 -1856
2021-09-22 14:28:06 GMT 32.291798 -100.479446 26,650 257 421 -1792
2021-09-22 14:27:59 GMT 32.294453 -100.465988 26,825 258 422 -1792
2021-09-22 14:27:55 GMT 32.296547 -100.455170 26,975 258 423 -1792
2021-09-22 14:27:47 GMT 32.300270 -100.436279 27,225 258 425 -1792
2021-09-22 14:27:44 GMT 32.301086 -100.432121 27,300 258 425 -1792
2021-09-22 14:27:36 GMT 32.304974 -100.411842 27,550 258 426 -1792
2021-09-22 14:27:33 GMT 32.306122 -100.405975 27,850 258 426 -1856
2021-09-22 14:27:28 GMT 32.308510 -100.393684 27,800 258 426 -1856
2021-09-22 14:27:23 GMT 32.310467 -100.383484 28,175 258 428 -1792
2021-09-22 14:27:19 GMT 32.312794 -100.371651 28,100 258 427 -1792
2021-09-22 14:27:14 GMT 32.314957 -100.360435 28,225 258 428 -1792
2021-09-22 14:27:08 GMT 32.317169 -100.349068 28,400 258 429 -1856
2021-09-22 14:27:03 GMT 32.319580 -100.336487 28,550 258 432 -1856
2021-09-22 14:26:57 GMT 32.321915 -100.324570 28,725 258 433 -1792
2021-09-22 14:26:53 GMT 32.324337 -100.312073 28,875 258 433 -1792
2021-09-22 14:26:50 GMT 32.325085 -100.308426 29,000 258 434 -1792
2021-09-22 14:26:47 GMT 32.326401 -100.301437 29,025 258 434 -1792
2021-09-22 14:26:44 GMT 32.328232 -100.292213 29,150 258 436 -1792
2021-09-22 14:26:41 GMT 32.329552 -100.285500 29,350 258 437 -1792
2021-09-22 14:26:36 GMT 32.331367 -100.275970 29,350 258 437 -1856
2021-09-22 14:26:32 GMT 32.333740 -100.263863 29,475 258 436 -1344
2021-09-22 14:26:27 GMT 32.335369 -100.255516 29,550 258 436 -1152
2021-09-22 14:26:23 GMT 32.337700 -100.243408 29,650 258 437 -1088
2021-09-22 14:26:20 GMT 32.338768 -100.237801 29,700 258 437 -1088
2021-09-22 14:26:16 GMT 32.340397 -100.229393 29,750 258 437 -1088
2021-09-22 14:26:11 GMT 32.343052 -100.215431 29,875 258 437 -1152
2021-09-22 14:26:07 GMT 32.344894 -100.205856 29,950 258 437 -1088
2021-09-22 14:26:02 GMT 32.347092 -100.194435 30,000 258 436 -256
2021-09-22 14:25:58 GMT 32.348454 -100.187462 30,000 258 436 0
2021-09-22 14:25:53 GMT 32.351212 -100.173065 30,000 258 436 0
2021-09-22 14:25:50 GMT 32.352585 -100.165871 30,000 258 436 0
2021-09-22 14:25:44 GMT 32.354691 -100.154953 30,000 258 436 0
2021-09-22 14:25:39 GMT 32.357117 -100.142410 30,000 258 436 0
2021-09-22 14:25:29 GMT 32.363300 -100.110283 30,000 258 436 0
2021-09-22 14:25:24 GMT 32.364185 -100.105629 30,000 258 436 0
2021-09-22 14:25:18 GMT 32.366821 -100.092209 30,000 258 436 0
2021-09-22 14:25:14 GMT 32.368095 -100.085396 30,000 258 436 64
2021-09-22 14:25:08 GMT 32.370712 -100.071884 30,000 258 435 0
2021-09-22 14:25:04 GMT 32.373093 -100.059685 30,000 258 435 0
2021-09-22 14:25:00 GMT 32.374878 -100.050400 30,000 258 435 0
2021-09-22 14:24:57 GMT 32.376297 -100.043098 30,000 258 435 0
2021-09-22 14:24:54 GMT 32.377396 -100.037384 30,000 258 435 0
2021-09-22 14:24:48 GMT 32.382061 -100.012970 30,000 258 435 0
2021-09-22 14:24:44 GMT 32.382061 -100.012970 30,000 258 436 0
2021-09-22 14:24:40 GMT 32.383785 -100.003670 30,000 258 436 0
2021-09-22 14:24:36 GMT 32.385361 -99.995636 30,000 258 436 0
2021-09-22 14:24:33 GMT 32.386669 -99.988815 30,000 257 436 0
2021-09-22 14:24:27 GMT 32.389465 -99.974915 30,000 257 436 0
2021-09-22 14:24:23 GMT 32.391678 -99.964104 30,000 257 435 0
2021-09-22 14:24:15 GMT 32.395203 -99.947464 30,000 256 435 -64
2021-09-22 14:24:12 GMT 32.396496 -99.941620 30,000 256 436 0
2021-09-22 14:24:09 GMT 32.398727 -99.931526 30,000 256 435 0
2021-09-22 14:24:05 GMT 32.400639 -99.923180 30,000 255 436 0
2021-09-22 14:24:01 GMT 32.405731 -99.901703 30,000 255 435 0
2021-09-22 14:23:56 GMT 32.405731 -99.901703 30,000 254 436 0
2021-09-22 14:23:52 GMT 32.407745 -99.893463 30,000 254 435 64
2021-09-22 14:23:47 GMT 32.410492 -99.882370 30,000 254 435 0
2021-09-22 14:23:44 GMT 32.411530 -99.878220 30,000 254 435 64
2021-09-22 14:23:41 GMT 32.414230 -99.867294 30,000 254 435 0
2021-09-22 14:23:34 GMT 32.418049 -99.851768 30,000 254 435 0
2021-09-22 14:23:30 GMT 32.419968 -99.844025 30,000 254 435 0
2021-09-22 14:23:23 GMT 32.423866 -99.828224 30,000 254 435 -64
2021-09-22 14:23:20 GMT 32.425915 -99.819984 30,000 254 435 -64
2021-09-22 14:23:13 GMT 32.433426 -99.789421 30,000 254 435 64
2021-09-22 14:23:06 GMT 32.433426 -99.789421 30,000 254 435 64
2021-09-22 14:23:02 GMT 32.435532 -99.780960 30,000 254 435 0
2021-09-22 14:22:58 GMT 32.438187 -99.770195 30,000 254 435 0
2021-09-22 14:22:53 GMT 32.441231 -99.757820 30,000 254 435 0
2021-09-22 14:22:49 GMT 32.442627 -99.752159 30,000 254 435 0
2021-09-22 14:22:45 GMT 32.445190 -99.741684 30,000 254 435 0
2021-09-22 14:22:42 GMT 32.447433 -99.732513 30,000 254 435 0
2021-09-22 14:22:38 GMT 32.449677 -99.723396 30,000 254 435 -64
2021-09-22 14:22:34 GMT 32.451920 -99.714279 30,000 254 435 0
2021-09-22 14:22:31 GMT 32.453293 -99.708786 30,000 254 435 0
2021-09-22 14:22:26 GMT 32.455849 -99.698296 30,000 254 435 0
2021-09-22 14:22:23 GMT 32.457432 -99.691902 30,000 254 435 0
2021-09-22 14:22:20 GMT 32.458832 -99.686150 30,000 254 435 0
2021-09-22 14:22:17 GMT 32.461349 -99.675934 30,000 254 435 0
2021-09-22 14:22:13 GMT 32.463318 -99.667915 30,000 254 435 0
2021-09-22 14:22:08 GMT 32.465607 -99.658577 30,000 254 435 0
2021-09-22 14:22:03 GMT 32.468418 -99.647171 30,000 254 435 0
2021-09-22 14:22:00 GMT 32.470650 -99.638039 30,000 254 435 0
2021-09-22 14:21:55 GMT 32.473389 -99.626823 30,000 254 435 0
2021-09-22 14:21:52 GMT 32.474762 -99.621170 30,000 254 435 0
2021-09-22 14:21:49 GMT 32.476364 -99.614792 30,000 254 435 0
2021-09-22 14:21:42 GMT 32.480988 -99.595840 30,000 254 435 0
2021-09-22 14:21:39 GMT 32.482086 -99.591286 30,000 254 435 0
2021-09-22 14:21:35 GMT 32.484787 -99.580299 30,000 254 435 0
2021-09-22 14:21:29 GMT 32.488403 -99.565628 30,000 254 435 0
2021-09-22 14:21:22 GMT 32.492020 -99.550858 30,000 254 435 0
2021-09-22 14:21:17 GMT 32.494068 -99.542358 30,000 254 435 0
2021-09-22 14:21:08 GMT 32.499840 -99.518700 30,000 254 434 0
2021-09-22 14:20:59 GMT 32.504124 -99.501099 30,000 254 433 0
2021-09-22 14:20:56 GMT 32.505798 -99.494278 30,000 254 433 0
2021-09-22 14:20:52 GMT 32.508545 -99.483047 30,000 254 433 0
2021-09-22 14:20:49 GMT 32.509964 -99.477135 30,000 254 433 0
2021-09-22 14:20:46 GMT 32.512024 -99.468735 30,000 254 433 0
2021-09-22 14:20:42 GMT 32.513851 -99.461189 30,000 255 433 0
2021-09-22 14:20:39 GMT 32.515156 -99.455750 30,000 255 433 -64
2021-09-22 14:20:35 GMT 32.517975 -99.444122 30,000 255 433 0
2021-09-22 14:20:30 GMT 32.520859 -99.432259 30,000 255 433 0
2021-09-22 14:20:27 GMT 32.522278 -99.426323 30,000 255 433 0
2021-09-22 14:20:24 GMT 32.523514 -99.421326 30,000 255 433 64
2021-09-22 14:20:19 GMT 32.526466 -99.409004 30,000 255 433 0
2021-09-22 14:20:16 GMT 32.527908 -99.403091 30,000 254 433 0
2021-09-22 14:20:11 GMT 32.531387 -99.388641 30,000 254 434 0
2021-09-22 14:20:07 GMT 32.533543 -99.379799 30,000 255 433 0
2021-09-22 14:20:03 GMT 32.535686 -99.370667 30,000 256 433 0
2021-09-22 14:20:00 GMT 32.536926 -99.364799 30,000 264 429 0
2021-09-22 14:19:56 GMT 32.538666 -99.356560 30,000 257 432 0
2021-09-22 14:19:53 GMT 32.540249 -99.348579 30,000 258 431 0
2021-09-22 14:19:50 GMT 32.541687 -99.340744 30,000 259 431 0
2021-09-22 14:19:47 GMT 32.542763 -99.334793 30,000 259 431 0
2021-09-22 14:19:44 GMT 32.543694 -99.329185 30,000 264 429 0
2021-09-22 14:19:41 GMT 32.544800 -99.322227 30,000 264 429 0
2021-09-22 14:19:36 GMT 32.546719 -99.308723 30,000 262 430 64
2021-09-22 14:19:33 GMT 32.547558 -99.302223 30,000 262 430 64
2021-09-22 14:19:29 GMT 32.548737 -99.292458 30,000 263 430 0
2021-09-22 14:19:25 GMT 32.549511 -99.284515 30,000 264 429 0
2021-09-22 14:19:22 GMT 32.550247 -99.276749 30,000 264 429 0
2021-09-22 14:19:18 GMT 32.550953 -99.268646 30,000 264 429 0
2021-09-22 14:19:15 GMT 32.551666 -99.260704 30,000 264 429 0
2021-09-22 14:19:12 GMT 32.552353 -99.252785 30,000 264 429 0
2021-09-22 14:19:07 GMT 32.553223 -99.242905 30,000 264 429 0
2021-09-22 14:19:03 GMT 32.554092 -99.233566 30,000 264 429 0
2021-09-22 14:18:59 GMT 32.555004 -99.223022 30,000 264 429 0
2021-09-22 14:18:55 GMT 32.555923 -99.212967 30,000 264 429 0
2021-09-22 14:18:52 GMT 32.556446 -99.206879 30,000 264 429 -64
2021-09-22 14:18:49 GMT 32.557007 -99.200600 30,000 264 429 0
2021-09-22 14:18:46 GMT 32.557518 -99.194771 30,000 264 429 0
2021-09-22 14:18:43 GMT 32.558449 -99.184456 30,000 264 429 0
2021-09-22 14:18:37 GMT 32.559658 -99.170502 30,000 265 429 0
2021-09-22 14:18:33 GMT 32.560310 -99.163155 30,000 265 429 0
2021-09-22 14:18:30 GMT 32.561054 -99.154579 30,000 265 429 0
2021-09-22 14:18:24 GMT 32.562359 -99.139893 30,000 264 429 0
2021-09-22 14:18:21 GMT 32.562973 -99.132881 30,000 265 429 0
2021-09-22 14:18:16 GMT 32.563980 -99.121452 30,000 265 429 0
2021-09-22 14:18:13 GMT 32.564407 -99.116295 30,000 265 429 0
2021-09-22 14:18:09 GMT 32.565353 -99.105576 30,000 265 429 0
2021-09-22 14:18:05 GMT 32.565948 -99.098984 30,000 265 429 0
2021-09-22 14:18:02 GMT 32.566681 -99.090637 30,000 265 429 0
2021-09-22 14:17:56 GMT 32.568146 -99.073776 30,000 265 429 0
2021-09-22 14:17:52 GMT 32.568691 -99.067703 30,000 265 429 0
2021-09-22 14:17:48 GMT 32.569611 -99.056961 30,000 265 429 0
2021-09-22 14:17:41 GMT 32.570877 -99.042480 30,000 265 429 0
2021-09-22 14:17:38 GMT 32.571762 -99.032440 30,000 265 429 0
2021-09-22 14:17:34 GMT 32.572586 -99.022575 30,000 265 429 0
2021-09-22 14:17:31 GMT 32.572880 -99.019157 30,000 265 428 0
2021-09-22 14:17:26 GMT 32.574097 -99.005600 30,000 265 428 0
2021-09-22 14:17:21 GMT 32.574966 -98.995331 30,000 265 428 0
2021-09-22 14:17:15 GMT 32.576046 -98.982727 30,000 265 428 0
2021-09-22 14:17:12 GMT 32.577023 -98.971512 30,000 265 428 0
2021-09-22 14:17:08 GMT 32.577576 -98.965446 30,000 265 428 0
2021-09-22 14:17:04 GMT 32.578629 -98.953362 30,000 265 428 0
2021-09-22 14:17:01 GMT 32.579071 -98.948196 30,000 265 428 0
2021-09-22 14:16:58 GMT 32.579536 -98.942703 30,000 265 428 0
2021-09-22 14:16:53 GMT 32.580780 -98.928146 30,000 265 428 0
2021-09-22 14:16:50 GMT 32.581493 -98.920227 30,000 265 428 0
2021-09-22 14:16:45 GMT 32.582474 -98.908592 30,000 265 428 0
2021-09-22 14:16:40 GMT 32.583168 -98.900665 30,000 265 428 0
2021-09-22 14:16:37 GMT 32.584007 -98.890518 30,000 265 428 0
2021-09-22 14:16:34 GMT 32.584442 -98.885468 30,000 265 428 0
2021-09-22 14:16:31 GMT 32.585266 -98.875961 30,000 265 428 64
2021-09-22 14:16:27 GMT 32.585869 -98.868996 30,000 265 428 64
2021-09-22 14:16:24 GMT 32.586548 -98.861023 30,000 265 428 0
2021-09-22 14:16:19 GMT 32.587601 -98.848885 30,000 265 428 0
2021-09-22 14:16:11 GMT 32.589966 -98.821404 30,000 265 428 0
2021-09-22 14:16:07 GMT 32.590801 -98.811150 30,000 265 427 0
2021-09-22 14:16:03 GMT 32.590801 -98.811150 30,000 265 427 0
2021-09-22 14:15:59 GMT 32.591595 -98.802071 30,000 265 427 0
2021-09-22 14:15:54 GMT 32.592430 -98.792542 30,000 265 427 0
2021-09-22 14:15:48 GMT 32.593597 -98.778580 30,000 265 427 0
2021-09-22 14:15:42 GMT 32.594971 -98.762314 30,000 265 426 64
2021-09-22 14:15:39 GMT 32.595520 -98.755829 30,000 265 427 64
2021-09-22 14:15:36 GMT 32.596111 -98.748871 30,000 265 426 0
2021-09-22 14:15:31 GMT 32.597031 -98.738144 30,000 265 426 64
2021-09-22 14:15:28 GMT 32.598267 -98.723312 30,000 265 427 64
2021-09-22 14:15:25 GMT 32.598267 -98.723312 30,000 265 427 0
2021-09-22 14:15:22 GMT 32.598808 -98.717262 30,000 265 427 0
2021-09-22 14:15:19 GMT 32.599457 -98.709358 30,000 265 427 0
2021-09-22 14:15:16 GMT 32.599880 -98.704422 30,000 265 427 0
2021-09-22 14:15:09 GMT 32.601196 -98.688866 30,000 265 428 -64
2021-09-22 14:15:06 GMT 32.602020 -98.678818 30,000 265 428 -64
2021-09-22 14:15:00 GMT 32.603210 -98.664810 30,000 265 429 0
2021-09-22 14:14:56 GMT 32.603851 -98.657173 30,000 265 429 768
2021-09-22 14:14:48 GMT 32.605652 -98.636093 29,900 265 429 1216
2021-09-22 14:14:44 GMT 32.606461 -98.626297 29,825 265 426 768
2021-09-22 14:14:37 GMT 32.607513 -98.613617 29,700 265 430 1088
2021-09-22 14:14:34 GMT 32.608166 -98.606331 29,650 265 427 896
2021-09-22 14:14:31 GMT 32.608978 -98.596306 29,600 265 429 1024
2021-09-22 14:14:26 GMT 32.609940 -98.585098 29,500 265 429 960
2021-09-22 14:14:22 GMT 32.610626 -98.576859 29,450 265 429 960
2021-09-22 14:14:18 GMT 32.611423 -98.566925 29,400 265 427 896
2021-09-22 14:14:14 GMT 32.612217 -98.557510 29,350 265 426 832
2021-09-22 14:14:10 GMT 32.613056 -98.547310 29,275 265 426 768
2021-09-22 14:14:06 GMT 32.613754 -98.538956 29,225 265 426 768
2021-09-22 14:14:02 GMT 32.615055 -98.523148 29,150 265 426 768
2021-09-22 14:13:58 GMT 32.615055 -98.523148 29,100 265 423 896
2021-09-22 14:13:54 GMT 32.615845 -98.513412 29,075 265 423 896
2021-09-22 14:13:51 GMT 32.616501 -98.505547 29,050 265 423 960
2021-09-22 14:13:48 GMT 32.617199 -98.497307 28,975 265 422 1024
2021-09-22 14:13:45 GMT 32.617569 -98.492653 28,700 265 422 1088
2021-09-22 14:13:42 GMT 32.618225 -98.484795 28,825 265 422 1216
2021-09-22 14:13:38 GMT 32.619015 -98.475281 28,800 265 422 1216
2021-09-22 14:13:35 GMT 32.619480 -98.469559 28,700 265 422 1280
2021-09-22 14:13:32 GMT 32.620316 -98.459473 28,650 265 422 1344
2021-09-22 14:13:24 GMT 32.621529 -98.444733 28,475 265 422 1344
2021-09-22 14:13:21 GMT 32.622116 -98.437775 28,400 265 422 1408
2021-09-22 14:13:17 GMT 32.622829 -98.429146 28,350 265 422 1408
2021-09-22 14:13:12 GMT 32.624786 -98.405045 28,125 265 423 1408
2021-09-22 14:13:08 GMT 32.624786 -98.405045 28,100 265 423 1344
2021-09-22 14:13:02 GMT 32.625687 -98.394485 27,925 265 423 1344
2021-09-22 14:12:59 GMT 32.626556 -98.383804 27,900 265 423 1344
2021-09-22 14:12:53 GMT 32.627766 -98.369057 27,750 265 423 1408
2021-09-22 14:12:49 GMT 32.628277 -98.362556 27,725 265 423 1408
2021-09-22 14:12:43 GMT 32.629578 -98.346367 27,525 265 423 1344
2021-09-22 14:12:39 GMT 32.630325 -98.337616 27,425 265 423 1344
2021-09-22 14:12:32 GMT 32.631409 -98.324173 27,300 265 422 1344
2021-09-22 14:12:29 GMT 32.631954 -98.317268 27,150 265 422 1344
2021-09-22 14:12:26 GMT 32.632690 -98.308464 27,150 265 422 1344
2021-09-22 14:12:23 GMT 32.633286 -98.301102 27,100 265 422 1280
2021-09-22 14:12:19 GMT 32.633789 -98.294678 27,025 265 421 1216
2021-09-22 14:12:16 GMT 32.634609 -98.285034 26,950 265 420 1216
2021-09-22 14:12:13 GMT 32.635025 -98.279953 26,900 265 420 1152
2021-09-22 14:12:10 GMT 32.635677 -98.271469 26,850 265 419 1152
2021-09-22 14:12:07 GMT 32.636353 -98.263474 26,775 265 419 1152
2021-09-22 14:12:00 GMT 32.637543 -98.248863 26,675 265 417 1088
2021-09-22 14:11:57 GMT 32.638092 -98.241562 26,600 265 416 960
2021-09-22 14:11:54 GMT 32.638412 -98.237930 26,575 265 416 896
2021-09-22 14:11:51 GMT 32.638985 -98.230438 26,475 265 413 768
2021-09-22 14:11:48 GMT 32.639683 -98.222260 26,500 265 413 768
2021-09-22 14:11:45 GMT 32.640381 -98.213547 26,425 265 412 832
2021-09-22 14:11:40 GMT 32.641079 -98.204994 26,350 265 410 1216
2021-09-22 14:11:37 GMT 32.641617 -98.198273 26,300 265 410 1280
2021-09-22 14:11:34 GMT 32.642029 -98.192886 26,200 265 408 1280
2021-09-22 14:11:31 GMT 32.642662 -98.185265 26,150 265 409 1344
2021-09-22 14:11:28 GMT 32.643360 -98.176521 26,100 265 408 1280
2021-09-22 14:11:22 GMT 32.644455 -98.162514 25,950 265 407 1408
2021-09-22 14:11:19 GMT 32.645050 -98.155373 25,875 265 407 1472
2021-09-22 14:11:16 GMT 32.645233 -98.152901 25,850 265 407 1536
2021-09-22 14:11:12 GMT 32.645920 -98.144287 25,750 265 406 1728
2021-09-22 14:11:09 GMT 32.646618 -98.135544 25,600 265 406 1792
2021-09-22 14:11:06 GMT 32.647083 -98.130104 25,450 265 407 1792
2021-09-22 14:11:00 GMT 32.648163 -98.116371 25,375 265 407 1728
2021-09-22 14:10:56 GMT 32.648895 -98.107361 25,275 265 406 1664
2021-09-22 14:10:50 GMT 32.650108 -98.091988 25,075 265 406 1664
2021-09-22 14:10:47 GMT 32.650528 -98.086555 25,000 265 406 1664
2021-09-22 14:10:44 GMT 32.651047 -98.079948 24,925 265 406 1664
2021-09-22 14:10:40 GMT 32.651825 -98.070175 24,800 265 405 1664
2021-09-22 14:10:36 GMT 32.652603 -98.060501 24,700 265 405 1600
2021-09-22 14:10:30 GMT 32.653648 -98.047707 24,525 265 403 1472
2021-09-22 14:10:25 GMT 32.654392 -98.037788 24,425 265 403 1472
2021-09-22 14:10:19 GMT 32.655350 -98.025894 24,275 265 402 1536
2021-09-22 14:10:15 GMT 32.656219 -98.014633 24,175 265 401 1472
2021-09-22 14:10:11 GMT 32.656906 -98.005905 24,000 265 400 1472
2021-09-22 14:10:04 GMT 32.657959 -97.992775 23,925 265 399 1408
2021-09-22 14:09:59 GMT 32.658817 -97.981682 23,750 265 398 1408
2021-09-22 14:09:53 GMT 32.659840 -97.968674 23,650 265 396 1408
2021-09-22 14:09:48 GMT 32.660679 -97.958305 23,550 265 395 1536
2021-09-22 14:09:44 GMT 32.661575 -97.946632 23,400 265 394 1600
2021-09-22 14:09:39 GMT 32.662212 -97.938690 23,300 265 393 1664
2021-09-22 14:09:33 GMT 32.663284 -97.924728 23,125 265 392 1728
2021-09-22 14:09:28 GMT 32.664047 -97.915100 23,000 265 391 1728
2021-09-22 14:09:23 GMT 32.665054 -97.902473 22,825 265 391 1792
2021-09-22 14:09:18 GMT 32.665844 -97.892166 22,675 265 390 1920
2021-09-22 14:09:14 GMT 32.666885 -97.878952 22,475 265 390 1920
2021-09-22 14:09:07 GMT 32.667572 -97.870438 22,350 265 389 2048
2021-09-22 14:09:01 GMT 32.668636 -97.856461 22,125 265 389 2048
2021-09-22 14:08:58 GMT 32.669220 -97.849236 22,000 265 388 1792
2021-09-22 14:08:51 GMT 32.670219 -97.836166 21,825 265 388 1728
2021-09-22 14:08:48 GMT 32.670822 -97.828087 21,725 265 386 1664
2021-09-22 14:08:43 GMT 32.671757 -97.816490 21,575 265 385 1664
2021-09-22 14:08:40 GMT 32.671944 -97.814026 21,550 265 385 1600
2021-09-22 14:08:35 GMT 32.673618 -97.792221 21,350 265 383 1600
2021-09-22 14:08:31 GMT 32.673618 -97.792221 21,275 265 382 1792
2021-09-22 14:08:27 GMT 32.674255 -97.784142 21,150 265 382 1920
2021-09-22 14:08:22 GMT 32.674988 -97.775131 20,900 263 382 1984
2021-09-22 14:08:19 GMT 32.675667 -97.768738 20,900 263 382 1984
2021-09-22 14:08:16 GMT 32.676460 -97.763016 20,800 260 383 1984
2021-09-22 14:08:13 GMT 32.677505 -97.756844 20,625 255 384 2048
2021-09-22 14:08:10 GMT 32.679337 -97.748604 20,575 254 384 2048
2021-09-22 14:08:05 GMT 32.681393 -97.740990 20,450 251 385 2112
2021-09-22 14:08:02 GMT 32.683548 -97.734268 20,275 244 387 2112
2021-09-22 14:07:59 GMT 32.685722 -97.728432 20,225 246 387 2112
2021-09-22 14:07:56 GMT 32.688934 -97.720810 20,100 242 388 2048
2021-09-22 14:07:51 GMT 32.691879 -97.714653 19,975 239 389 1920
2021-09-22 14:07:48 GMT 32.694847 -97.709091 19,875 237 390 1856
2021-09-22 14:07:45 GMT 32.698746 -97.702568 19,775 234 390 1856
2021-09-22 14:07:38 GMT 32.706345 -97.690926 19,550 233 389 1920
2021-09-22 14:07:35 GMT 32.710117 -97.685158 19,450 233 389 1984
2021-09-22 14:07:30 GMT 32.714863 -97.677933 19,225 233 388 2048
2021-09-22 14:07:27 GMT 32.718704 -97.672028 19,175 233 388 2112
2021-09-22 14:07:24 GMT 32.721817 -97.667252 19,075 233 387 2112
2021-09-22 14:07:21 GMT 32.725296 -97.661972 18,950 233 387 2112
2021-09-22 14:07:18 GMT 32.729279 -97.655876 18,850 233 387 1984
2021-09-22 14:07:14 GMT 32.733021 -97.650185 18,750 233 385 1920
2021-09-22 14:07:09 GMT 32.737907 -97.642670 18,600 233 385 1920
2021-09-22 14:07:06 GMT 32.741638 -97.637039 18,500 233 384 1984
2021-09-22 14:07:03 GMT 32.744377 -97.632866 18,425 233 384 1984
2021-09-22 14:06:59 GMT 32.748428 -97.626640 18,300 233 383 1920
2021-09-22 14:06:56 GMT 32.753132 -97.619408 18,175 233 382 1792
2021-09-22 14:06:53 GMT 32.755783 -97.615372 18,100 233 381 1792
2021-09-22 14:06:49 GMT 32.760067 -97.608765 17,950 233 380 1792
2021-09-22 14:06:46 GMT 32.762924 -97.604408 17,850 233 379 1792
2021-09-22 14:06:43 GMT 32.766956 -97.598282 17,775 233 377 1792
2021-09-22 14:06:38 GMT 32.771118 -97.591934 17,675 233 377 1728
2021-09-22 14:06:34 GMT 32.775421 -97.585289 17,550 233 376 1792
2021-09-22 14:06:31 GMT 32.778442 -97.580673 17,450 233 375 1920
2021-09-22 14:06:26 GMT 32.785721 -97.569527 17,225 233 373 2112
2021-09-22 14:06:22 GMT 32.789253 -97.564087 17,125 233 372 2304
2021-09-22 14:06:18 GMT 32.792953 -97.558426 16,975 233 372 2368
2021-09-22 14:06:14 GMT 32.796612 -97.552818 16,775 233 372 2368
2021-09-22 14:06:11 GMT 32.800472 -97.546936 16,700 233 372 2304
2021-09-22 14:06:07 GMT 32.804291 -97.541046 16,375 233 371 2048
2021-09-22 14:06:04 GMT 32.807968 -97.535416 16,425 233 372 2176
2021-09-22 14:06:01 GMT 32.811230 -97.530457 16,325 233 371 2048
2021-09-22 14:05:57 GMT 32.814999 -97.524628 15,875 233 370 2112
2021-09-22 14:05:53 GMT 32.819046 -97.518440 16,075 233 370 2112
2021-09-22 14:05:50 GMT 32.822678 -97.512856 15,950 233 370 2112
2021-09-22 14:05:46 GMT 32.826279 -97.507339 15,750 233 368 2112
2021-09-22 14:05:43 GMT 32.829430 -97.502487 15,725 233 368 2112
2021-09-22 14:05:39 GMT 32.833668 -97.496040 15,600 233 367 2048
2021-09-22 14:05:34 GMT 32.840103 -97.486137 15,375 233 366 2048
2021-09-22 14:05:30 GMT 32.844559 -97.479279 15,250 233 365 1984
2021-09-22 14:05:25 GMT 32.848160 -97.473831 15,000 233 363 2112
2021-09-22 14:05:22 GMT 32.850845 -97.469635 15,050 233 363 2112
2021-09-22 14:05:19 GMT 32.854752 -97.463615 14,925 233 363 2112
2021-09-22 14:05:15 GMT 32.858383 -97.458092 14,725 233 361 1920
2021-09-22 14:05:12 GMT 32.861481 -97.453293 14,700 233 361 1920
2021-09-22 14:05:08 GMT 32.865459 -97.447220 14,575 233 360 1792
2021-09-22 14:05:05 GMT 32.869884 -97.440376 12,450 233 357 3200
2021-09-22 14:05:02 GMT 32.876213 -97.430679 14,375 233 357 1600
2021-09-22 14:04:59 GMT 32.876213 -97.430679 14,275 233 355 1600
2021-09-22 14:04:54 GMT 32.880219 -97.424515 14,150 233 353 1728
2021-09-22 14:04:51 GMT 32.884094 -97.418518 14,025 233 352 1920
2021-09-22 14:04:48 GMT 32.886108 -97.415443 13,975 233 350 2176
2021-09-22 14:04:44 GMT 32.890648 -97.408432 13,800 233 350 2496
2021-09-22 14:04:41 GMT 32.893162 -97.404617 13,625 233 350 2560
2021-09-22 14:04:38 GMT 32.896790 -97.398956 13,525 233 350 2688
2021-09-22 14:04:33 GMT 32.901031 -97.392426 13,300 233 350 3008
2021-09-22 14:04:30 GMT 32.904007 -97.387917 13,175 233 351 3072
2021-09-22 14:04:27 GMT 32.906845 -97.383484 13,000 233 352 3200
2021-09-22 14:04:24 GMT 32.909592 -97.379295 12,775 233 354 3200
2021-09-22 14:04:21 GMT 32.913921 -97.372665 12,625 233 356 3200
2021-09-22 14:04:17 GMT 32.917133 -97.367676 12,450 233 356 3200
2021-09-22 14:04:13 GMT 32.922070 -97.360054 9,800 233 360 3840
2021-09-22 14:04:10 GMT 32.923553 -97.357819 9,800 233 360 3840
2021-09-22 14:04:07 GMT 32.928085 -97.350845 9,800 233 360 3840
2021-09-22 14:04:00 GMT 32.934917 -97.340324 11,500 233 363 4160
2021-09-22 14:03:56 GMT 32.938316 -97.335052 9,800 233 362 -64
2021-09-22 14:03:51 GMT 32.944599 -97.325356 10,900 233 369 3584
2021-09-22 14:03:48 GMT 32.946121 -97.322990 10,800 233 370 3520
2021-09-22 14:03:45 GMT 32.949142 -97.318375 10,625 233 371 3328
2021-09-22 14:03:39 GMT 32.956238 -97.307480 10,275 233 372 3584
2021-09-22 14:03:35 GMT 32.967270 -97.290527 9,800 233 362 -64
2021-09-22 14:03:29 GMT 32.967270 -97.290527 9,750 233 372 2048
2021-09-22 14:03:24 GMT 32.971115 -97.284538 9,625 233 362 -64
2021-09-22 14:03:21 GMT 32.975739 -97.277451 9,625 233 362 -64
2021-09-22 14:03:11 GMT 32.999088 -97.255722 9,500 264 284 3360
2021-09-22 14:03:09 GMT 32.999222 -97.254173 9,500 264 284 3360
2021-09-22 14:03:08 GMT 32.999359 -97.252609 9,500 264 284 3360
2021-09-22 14:03:06 GMT 32.999771 -97.247963 9,500 264 284 3360
2021-09-22 14:03:04 GMT 32.999901 -97.246399 9,500 264 284 3360
2021-09-22 14:03:03 GMT 33.000179 -97.243301 9,500 264 284 3360
2021-09-22 14:03:01 GMT 33.000309 -97.241753 9,500 264 284 3360
2021-09-22 14:03:00 GMT 33.000450 -97.240189 9,500 264 284 3360
2021-09-22 14:02:58 GMT 33.000721 -97.237091 9,500 264 284 3360
2021-09-22 14:02:57 GMT 33.000992 -97.233978 9,500 264 284 3360
2021-09-22 14:02:55 GMT 33.001129 -97.232430 9,500 264 284 3360
2021-09-22 14:02:54 GMT 33.001259 -97.230881 9,500 264 284 3360
2021-09-22 14:02:52 GMT 33.001530 -97.227768 9,500 264 284 3360
2021-09-22 14:02:51 GMT 33.001671 -97.226219 9,500 264 284 3360
2021-09-22 14:02:50 GMT 33.001942 -97.223122 9,500 264 284 3360
2021-09-22 14:02:48 GMT 33.002079 -97.221558 9,500 264 284 3360
2021-09-22 14:02:47 GMT 33.002209 -97.220009 9,500 264 284 3360
2021-09-22 14:02:46 GMT 33.002480 -97.216911 9,500 264 284 3360
2021-09-22 14:02:44 GMT 33.002621 -97.215347 9,500 264 284 3360
2021-09-22 14:02:42 GMT 33.002892 -97.212250 9,500 264 284 3360
2021-09-22 14:02:41 GMT 33.003029 -97.210701 9,500 264 284 3360
2021-09-22 14:02:39 GMT 33.003399 -97.207260 9,500 264 279 3360
2021-09-22 14:02:37 GMT 33.003670 -97.204201 9,500 264 279 3360
2021-09-22 14:02:36 GMT 33.003799 -97.202682 9,500 264 279 3360
2021-09-22 14:02:34 GMT 33.004261 -97.199364 9,100 264 275 3360
2021-09-22 14:02:33 GMT 33.004379 -97.197853 9,100 264 275 3360
2021-09-22 14:02:32 GMT 33.004509 -97.196342 9,100 264 275 3360
2021-09-22 14:02:30 GMT 33.004902 -97.193443 9,100 265 277 3360
2021-09-22 14:02:29 GMT 33.005119 -97.190399 9,100 265 277 3360
2021-09-22 14:02:27 GMT 33.005230 -97.188881 9,100 265 277 3360
2021-09-22 14:02:26 GMT 33.005508 -97.185928 8,900 265 279 3360
2021-09-22 14:02:24 GMT 33.005718 -97.182869 8,900 265 279 3904
2021-09-22 14:02:22 GMT 33.005821 -97.181351 8,900 265 279 3904
2021-09-22 14:02:21 GMT 33.005970 -97.179779 8,600 265 278 3904
2021-09-22 14:02:19 GMT 33.006180 -97.176727 8,600 265 278 3904
2021-09-22 14:02:18 GMT 33.006279 -97.175201 8,600 265 278 3904
2021-09-22 14:02:16 GMT 33.006699 -97.172073 8,400 266 274 3904
2021-09-22 14:02:15 GMT 33.006760 -97.170570 8,400 266 274 3904
2021-09-22 14:02:13 GMT 33.006889 -97.167557 8,400 266 274 3904
2021-09-22 14:02:12 GMT 33.006859 -97.166031 7,800 264 278 3904
2021-09-22 14:02:10 GMT 33.007069 -97.162979 7,800 264 278 3904
2021-09-22 14:02:09 GMT 33.007179 -97.161461 7,800 264 278 3904
2021-09-22 14:02:08 GMT 33.007290 -97.158272 7,800 264 276 3904
2021-09-22 14:02:06 GMT 33.007408 -97.156761 7,800 264 276 3904
2021-09-22 14:02:04 GMT 33.007641 -97.153732 7,800 264 276 3904
2021-09-22 14:02:03 GMT 33.007061 -97.152489 7,600 262 275 3904
2021-09-22 14:02:01 GMT 33.007359 -97.149483 7,600 262 275 3904
2021-09-22 14:02:00 GMT 33.007500 -97.147980 7,600 262 275 3904
2021-09-22 14:01:58 GMT 33.007401 -97.145348 7,300 261 283 3904
2021-09-22 14:01:57 GMT 33.007580 -97.143806 7,300 261 283 3904
2021-09-22 14:01:56 GMT 33.007771 -97.142273 7,300 261 283 3904
2021-09-22 14:01:54 GMT 33.007820 -97.139389 7,000 261 284 3904
2021-09-22 14:01:52 GMT 33.008430 -97.134758 7,000 261 284 3904
2021-09-22 14:01:50 GMT 33.008640 -97.133209 7,000 261 284 3904
2021-09-22 14:01:49 GMT 33.008389 -97.131767 6,700 261 282 3904
2021-09-22 14:01:47 GMT 33.008820 -97.128708 6,700 261 282 3904
2021-09-22 14:01:46 GMT 33.009029 -97.127167 6,700 261 282 3904
2021-09-22 14:01:45 GMT 33.009510 -97.124229 6,500 265 279 3904
2021-09-22 14:01:43 GMT 33.009739 -97.121170 6,500 265 279 3904
2021-09-22 14:01:41 GMT 33.009861 -97.119637 6,500 265 279 3904
2021-09-22 14:01:39 GMT 33.010471 -97.116821 6,200 273 278 3904
2021-09-22 14:01:38 GMT 33.010422 -97.115288 6,200 273 278 3904
2021-09-22 14:01:36 GMT 33.010521 -97.112419 6,200 276 284 3904
2021-09-22 14:01:35 GMT 33.010632 -97.109200 6,000 282 274 3904
2021-09-22 14:01:33 GMT 33.010391 -97.107719 6,000 282 274 3904
2021-09-22 14:01:32 GMT 33.010139 -97.106239 6,000 282 274 3904
2021-09-22 14:01:30 GMT 33.010189 -97.102966 5,700 291 263 3904
2021-09-22 14:01:29 GMT 33.009769 -97.101608 5,700 291 263 3904
2021-09-22 14:01:28 GMT 33.009338 -97.100258 5,700 291 263 3904
2021-09-22 14:01:26 GMT 33.009201 -97.097069 5,500 302 257 3904
2021-09-22 14:01:25 GMT 33.007992 -97.094620 5,500 302 257 3904
2021-09-22 14:01:23 GMT 33.007389 -97.093399 5,500 302 257 2624
2021-09-22 14:01:22 GMT 33.007160 -97.091957 5,500 306 259 2624
2021-09-22 14:01:20 GMT 33.006111 -97.089233 5,200 313 252 2624
2021-09-22 14:01:18 GMT 33.004570 -97.087143 5,200 313 252 2624
2021-09-22 14:01:17 GMT 33.004601 -97.085159 5,000 324 251 2624
2021-09-22 14:01:15 GMT 33.002762 -97.083473 5,000 324 251 2624
2021-09-22 14:01:14 GMT 33.001839 -97.082626 5,000 324 251 2624
2021-09-22 14:01:13 GMT 33.000469 -97.079903 4,800 333 245 2624
2021-09-22 14:01:11 GMT 32.998470 -97.078629 4,800 333 245 2624
2021-09-22 14:01:09 GMT 32.997471 -97.078003 4,800 333 245 2624
2021-09-22 14:01:08 GMT 32.996841 -97.076523 4,600 339 242 2624
2021-09-22 14:01:06 GMT 32.994751 -97.075539 4,600 339 242 2624
2021-09-22 14:01:05 GMT 32.993710 -97.075058 4,600 339 242 2624
2021-09-22 14:01:03 GMT 32.991650 -97.073708 4,400 341 232 2624
2021-09-22 14:01:02 GMT 32.989609 -97.072891 4,400 341 232 2624
2021-09-22 14:01:00 GMT 32.988590 -97.072479 4,400 341 232 2624
2021-09-22 14:00:59 GMT 32.987579 -97.072121 4,400 341 232 2624
2021-09-22 14:00:57 GMT 32.985142 -97.071037 4,200 341 206 2624
2021-09-22 14:00:55 GMT 32.983318 -97.070328 4,200 341 206 2624
2021-09-22 14:00:54 GMT 32.981731 -97.069740 4,000 341 186 2624
2021-09-22 14:00:52 GMT 32.980091 -97.069099 4,000 341 186 2624
2021-09-22 14:00:51 GMT 32.979271 -97.068779 4,000 341 186 2624
2021-09-22 14:00:49 GMT 32.977612 -97.068123 3,800 341 192 2624
2021-09-22 14:00:48 GMT 32.975922 -97.067467 3,800 341 192 2624
2021-09-22 14:00:46 GMT 32.975071 -97.067139 3,800 341 192 2624
2021-09-22 14:00:44 GMT 32.973640 -97.066597 3,500 341 211 2624
2021-09-22 14:00:43 GMT 32.972710 -97.066231 3,500 341 211 2624
2021-09-22 14:00:42 GMT 32.971771 -97.065872 3,500 341 211 2624
2021-09-22 14:00:40 GMT 32.969978 -97.065193 3,325 341 217 2624
2021-09-22 14:00:39 GMT 32.969021 -97.064796 3,325 341 216 2624
2021-09-22 14:00:37 GMT 32.967060 -97.064018 3,200 342 210 2624
2021-09-22 14:00:36 GMT 32.966141 -97.063690 3,200 342 211 2624
2021-09-22 14:00:34 GMT 32.964272 -97.062981 3,125 341 214 2624
2021-09-22 14:00:33 GMT 32.963329 -97.062607 3,000 342 214 2624
2021-09-22 14:00:31 GMT 32.961460 -97.061890 2,950 341 215 2624
2021-09-22 14:00:30 GMT 32.960522 -97.061539 2,775 341 215 2624
2021-09-22 14:00:28 GMT 32.958591 -97.060799 2,775 341 212 2624
2021-09-22 14:00:27 GMT 32.956779 -97.060066 2,675 342 217 2624
2021-09-22 14:00:25 GMT 32.955730 -97.059753 2,575 341 211 2624
2021-09-22 14:00:24 GMT 32.954781 -97.059357 2,575 341 208 2624
2021-09-22 14:00:22 GMT 32.953079 -97.058670 2,400 341 219 64
2021-09-22 14:00:21 GMT 32.951080 -97.057892 2,200 341 210 64
2021-09-22 14:00:19 GMT 32.950142 -97.057533 2,200 340 208 64
2021-09-22 14:00:18 GMT 32.948360 -97.056763 2,075 341 212 64
2021-09-22 14:00:16 GMT 32.947430 -97.056473 2,075 340 214 64
2021-09-22 14:00:14 GMT 32.945560 -97.055679 2,000 340 214 64
2021-09-22 14:00:13 GMT 32.944649 -97.055298 1,900 341 216 64
2021-09-22 14:00:12 GMT 32.943790 -97.054947 1,875 341 221 64
2021-09-22 14:00:10 GMT 32.941841 -97.054199 1,700 342 218 64
2021-09-22 14:00:09 GMT 32.939968 -97.053520 1,600 342 217 64
2021-09-22 14:00:07 GMT 32.939011 -97.053169 1,600 343 215 64
2021-09-22 14:00:06 GMT 32.938049 -97.052849 1,600 343 213 64
2021-09-22 14:00:04 GMT 32.936180 -97.052200 1,600 346 207 64
2021-09-22 14:00:03 GMT 32.935280 -97.051910 1,625 347 207 64
2021-09-22 14:00:01 GMT 32.933399 -97.051407 1,600 350 201 64
2021-09-22 14:00:00 GMT 32.932411 -97.051178 1,600 351 194 64
2021-09-22 13:59:59 GMT 32.930752 -97.050781 1,500 356 199 64
2021-09-22 13:59:57 GMT 32.929840 -97.050652 1,500 357 197 -128
2021-09-22 13:59:55 GMT 32.928028 -97.050529 1,500 358 193 160
2021-09-22 13:59:54 GMT 32.926262 -97.050484 1,500 358 187 160
2021-09-22 13:59:52 GMT 32.925331 -97.050461 1,500 358 178 160
2021-09-22 13:59:51 GMT 32.924500 -97.050438 1,500 358 182 160
2021-09-22 13:59:49 GMT 32.922981 -97.050438 1,500 359 172 160
2021-09-22 13:59:48 GMT 32.922211 -97.050400 1,475 0 173 160
2021-09-22 13:59:47 GMT 32.920620 -97.050423 1,475 0 169 160
2021-09-22 13:59:45 GMT 32.919811 -97.050423 1,450 0 164 160
2021-09-22 13:59:44 GMT 32.919048 -97.050400 1,450 1 162 160
2021-09-22 13:59:42 GMT 32.917568 -97.050453 1,425 1 160 160
2021-09-22 13:59:41 GMT 32.916821 -97.050484 1,425 0 157 160
2021-09-22 13:59:40 GMT 32.915371 -97.050491 1,400 1 151 -128
2021-09-22 13:59:38 GMT 32.914650 -97.050507 1,400 1 147 -128
2021-09-22 13:59:36 GMT 32.913288 -97.050560 1,400 0 143 3424
2021-09-22 13:59:34 GMT 32.911961 -97.050560 1,375 1 138 3424
2021-09-22 13:59:33 GMT 32.911308 -97.050591 1,350 1 137 3424
2021-09-22 13:59:32 GMT 32.910011 -97.050629 1,300 0 130 3424
2021-09-22 13:59:30 GMT 32.909401 -97.050613 1,150 2 131 3424
2021-09-22 13:59:29 GMT 32.908218 -97.050652 1,150 0 136 3424
2021-09-22 13:59:27 GMT 32.907558 -97.050636 1,050 1 131 3424
2021-09-22 13:59:25 GMT 32.906361 -97.050690 900 0 133 3424
2021-09-22 13:59:24 GMT 32.905739 -97.050682 900 0 132 3424
2021-09-22 13:59:22 GMT 32.904499 -97.050697 850 0 132 3424
2021-09-22 13:59:21 GMT 32.903889 -97.050713 775 0 136 224
2021-09-22 13:59:19 GMT 32.902618 -97.050713 725 0 137 224
2021-09-22 13:59:18 GMT 32.902000 -97.050728 625 0 140 224
2021-09-22 13:59:16 GMT 32.900711 -97.050751 500 0 145 224
2021-09-22 13:59:15 GMT 32.900051 -97.050774 200 0 145 224
2021-09-22 13:59:14 GMT 32.898708 -97.050774 200 0 144 224
2021-09-22 13:59:12 GMT 32.898060 -97.050789 200 0 147 224
2021-09-22 13:59:10 GMT 32.896751 -97.050812 200 0 156 224
2021-09-22 13:59:09 GMT 32.896042 -97.050819 200 0 156 224
2021-09-22 13:59:08 GMT 32.894600 -97.050812 200 0 150 -1312
2021-09-22 13:59:06 GMT 32.893921 -97.050812 200 0 148 -1312
2021-09-22 13:59:04 GMT 32.892570 -97.050842 200 0 143 -256
2021-09-22 13:59:03 GMT 32.891899 -97.050858 200 0 139 -256
2021-09-22 13:59:01 GMT 32.890610 -97.050888 200 359 131 -256
2021-09-22 13:59:00 GMT 32.889999 -97.050880 200 359 129 -256
2021-09-22 13:58:59 GMT 32.888241 -97.050903 200 359 116 -256
2021-09-22 13:58:57 GMT 32.887691 -97.050880 200 359 112 -256
2021-09-22 13:58:55 GMT 32.886650 -97.050858 200 0 105 -256
2021-09-22 13:58:54 GMT 32.886189 -97.050888 200 0 105 -256
2021-09-22 13:58:52 GMT 32.885208 -97.050873 200 0 95 -256
2021-09-22 13:58:50 GMT 32.884769 -97.050880 200 0 92 -256
2021-09-22 13:58:48 GMT 32.883911 -97.050888 200 0 82 -256
2021-09-22 13:58:47 GMT 32.883511 -97.050911 200 359 77 -256
2021-09-22 13:58:46 GMT 32.883160 -97.050903 200 359 74 -256
2021-09-22 13:58:44 GMT 32.882488 -97.050873 200 1 67 -256
2021-09-22 13:58:43 GMT 32.882172 -97.050903 200 0 62 0
2021-09-22 13:58:42 GMT 32.881618 -97.050880 0 1 52 0
2021-09-22 13:58:40 GMT 32.881359 -97.050903 0 0 47 0
2021-09-22 13:58:39 GMT 32.880852 -97.050911 0 359 28 0
2021-09-22 13:58:37 GMT 32.880711 -97.050911 0 358 25 0
2021-09-22 13:58:36 GMT 32.880539 -97.050903 0 0 18 0
2021-09-22 13:58:34 GMT 32.880329 -97.050926 0 351 12 0
2021-09-22 13:58:32 GMT 32.880180 -97.050919 0 353 2 0
2021-09-22 13:58:31 GMT 32.880199 -97.050919 0 353 5 0
2021-09-22 13:58:30 GMT 32.880169 -97.050880 0 2 5 0
2021-09-22 13:58:28 GMT 32.880161 -97.050903 0 355 6 0
2021-09-22 13:58:27 GMT 32.880138 -97.050903 0 6 6 0
2021-09-22 13:58:25 GMT 32.880070 -97.050888 0 345 5 0
2021-09-22 13:58:24 GMT 32.880032 -97.050911 0 321 6 0
2021-09-22 13:58:21 GMT 32.879971 -97.050888 0 305 7 0
2021-09-22 13:58:20 GMT 32.879951 -97.050858 0 300 7 0
2021-09-22 13:58:18 GMT 32.879902 -97.050812 0 286 8 0
2021-09-22 13:58:17 GMT 32.879871 -97.050789 0 272 9 0
2021-09-22 13:58:15 GMT 32.879848 -97.050713 0 271 10 0
2021-09-22 13:58:14 GMT 32.879848 -97.050629 0 276 7 0
2021-09-22 13:58:13 GMT 32.879841 -97.050560 0 275 8 0
2021-09-22 13:58:11 GMT 32.879848 -97.050507 0 274 7 0
2021-09-22 13:58:10 GMT 32.879841 -97.050468 0 272 7 0
2021-09-22 13:58:08 GMT 32.879829 -97.050392 0 272 8 0
2021-09-22 13:58:06 GMT 32.879841 -97.050293 0 271 6 0
2021-09-22 13:58:05 GMT 32.879829 -97.050262 0 273 5 0
2021-09-22 13:58:04 GMT 32.879829 -97.050232 0 271 6 0
2021-09-22 13:58:03 GMT 32.879829 -97.050209 0 271 7 0
2021-09-22 13:58:01 GMT 32.879822 -97.050117 0 267 7 0
2021-09-22 13:58:00 GMT 32.879829 -97.050072 0 270 4 0
2021-09-22 13:57:58 GMT 32.879848 -97.049988 0 270 4 0
2021-09-22 13:57:57 GMT 32.879841 -97.049911 0 270 2 0
2021-09-22 13:57:55 GMT 32.879841 -97.049881 0 270 2 0
2021-09-22 13:57:54 GMT 32.879841 -97.049858 0 270 2 0
2021-09-22 13:57:52 GMT 32.879829 -97.049850 0 270 2 0
2021-09-22 13:57:51 GMT 32.879799 -97.049889 0 270 4 0
2021-09-22 13:57:49 GMT 32.879822 -97.049820 0 270 1 0
2021-09-22 13:57:46 GMT 32.879841 -97.049767 0 270 0 0
2021-09-22 13:57:43 GMT 32.879841 -97.049744 0 270 0 0
2021-09-22 13:57:42 GMT 32.879822 -97.049751 0 270 0 0
2021-09-22 13:57:38 GMT 32.879841 -97.049751 0 270 0 0
2021-09-22 13:57:33 GMT 32.879810 -97.049751 0 270 0 0
2021-09-22 13:57:31 GMT 32.879799 -97.049751 0 270 0 0
2021-09-22 13:57:29 GMT 32.879829 -97.049759 0 270 1 0
2021-09-22 13:57:28 GMT 32.879822 -97.049759 0 270 1 0
2021-09-22 13:57:24 GMT 32.879799 -97.049751 0 270 1 0
2021-09-22 13:57:22 GMT 32.879841 -97.049728 0 270 0 0
2021-09-22 13:57:20 GMT 32.879841 -97.049744 0 270 0 0
2021-09-22 13:57:18 GMT 32.879848 -97.049759 0 270 0 0
2021-09-22 13:57:16 GMT 32.879829 -97.049744 0 270 0 0
2021-09-22 13:57:14 GMT 32.879841 -97.049728 0 270 0 0
2021-09-22 13:57:12 GMT 32.879841 -97.049713 0 270 0 0
2021-09-22 13:57:10 GMT 32.879829 -97.049721 0 270 0 0
2021-09-22 13:57:09 GMT 32.879822 -97.049744 0 270 0 0
2021-09-22 13:57:08 GMT 32.879822 -97.049728 0 270 0 0
2021-09-22 13:57:06 GMT 32.879822 -97.049728 0 270 0 0
2021-09-22 13:57:05 GMT 32.879810 -97.049744 0 270 0 0
2021-09-22 13:57:03 GMT 32.879810 -97.049751 0 270 0 0
2021-09-22 13:57:02 GMT 32.879810 -97.049759 0 270 1 0
2021-09-22 13:57:00 GMT 32.879810 -97.049728 0 270 1 0
2021-09-22 13:56:59 GMT 32.879810 -97.049744 0 270 1 0
2021-09-22 13:56:57 GMT 32.879799 -97.049789 0 270 0 0
2021-09-22 13:56:56 GMT 32.879829 -97.049744 0 270 1 0
2021-09-22 13:56:54 GMT 32.879822 -97.049751 0 270 1 0
2021-09-22 13:56:53 GMT 32.879810 -97.049751 0 270 2 0
2021-09-22 13:56:50 GMT 32.879780 -97.049782 0 270 0 0
2021-09-22 13:56:48 GMT 32.879791 -97.049759 0 270 0 0
2021-09-22 13:56:45 GMT 32.879810 -97.049744 0 270 0 0
2021-09-22 13:56:43 GMT 32.879799 -97.049744 0 270 0 0
2021-09-22 13:56:40 GMT 32.879810 -97.049728 0 270 0 0
2021-09-22 13:56:39 GMT 32.879810 -97.049721 0 270 1 0
2021-09-22 13:56:38 GMT 32.879810 -97.049728 0 270 1 0
2021-09-22 13:56:36 GMT 32.879799 -97.049744 0 270 1 0
2021-09-22 13:56:33 GMT 32.879799 -97.049767 0 270 1 0
2021-09-22 13:56:31 GMT 32.879799 -97.049797 0 270 2 0
2021-09-22 13:56:30 GMT 32.879822 -97.049767 0 270 0 0
2021-09-22 13:56:27 GMT 32.879822 -97.049751 0 270 0 0
2021-09-22 13:56:26 GMT 32.879829 -97.049751 0 270 0 0
2021-09-22 13:56:23 GMT 32.879822 -97.049751 0 270 0 0
2021-09-22 13:56:20 GMT 32.879810 -97.049751 0 270 0 0
2021-09-22 13:56:18 GMT 32.879810 -97.049759 0 270 0 0
2021-09-22 13:56:17 GMT 32.879841 -97.049751 0 270 0 0
2021-09-22 13:56:14 GMT 32.879829 -97.049759 0 270 0 0
2021-09-22 13:56:13 GMT 32.879810 -97.049751 0 270 0 0
2021-09-22 13:56:11 GMT 32.879829 -97.049744 0 270 0 0
2021-09-22 13:56:07 GMT 32.879829 -97.049759 0 270 0 0
2021-09-22 13:56:04 GMT 32.879822 -97.049759 0 270 0 0
2021-09-22 13:56:02 GMT 32.879810 -97.049728 0 270 0 0
2021-09-22 13:55:58 GMT 32.879799 -97.049751 0 270 0 0
2021-09-22 13:55:57 GMT 32.879791 -97.049751 0 270 0 0
2021-09-22 13:55:54 GMT 32.879810 -97.049759 0 270 0 0
2021-09-22 13:55:52 GMT 32.879822 -97.049744 0 270 0 0
2021-09-22 13:55:44 GMT 32.879810 -97.049759 0 270 0 0
2021-09-22 13:55:42 GMT 32.879799 -97.049759 0 270 0 0
2021-09-22 13:55:38 GMT 32.879810 -97.049759 0 270 0 0
2021-09-22 13:55:36 GMT 32.879810 -97.049759 0 270 0 0
2021-09-22 13:55:34 GMT 32.879799 -97.049759 0 270 0 0
2021-09-22 13:55:33 GMT 32.879829 -97.049744 0 270 0 0
2021-09-22 13:55:31 GMT 32.879822 -97.049751 0 270 0 0
2021-09-22 13:55:28 GMT 32.879822 -97.049759 0 270 0 0
2021-09-22 13:55:27 GMT 32.879822 -97.049744 0 270 0 0
2021-09-22 13:55:26 GMT 32.879822 -97.049751 0 270 0 0
2021-09-22 13:55:24 GMT 32.879822 -97.049721 0 270 2 0
2021-09-22 13:55:21 GMT 32.879810 -97.049759 0 270 0 0
2021-09-22 13:55:18 GMT 32.879810 -97.049767 0 270 0 0
2021-09-22 13:55:17 GMT 32.879822 -97.049751 0 270 0 0
2021-09-22 13:55:14 GMT 32.879810 -97.049759 0 270 0 0
2021-09-22 13:55:13 GMT 32.879829 -97.049759 0 270 0 0
2021-09-22 13:55:12 GMT 32.879822 -97.049767 0 270 1 0
2021-09-22 13:55:11 GMT 32.879822 -97.049759 0 270 1 0
2021-09-22 13:55:10 GMT 32.879822 -97.049728 0 270 0 0
2021-09-22 13:55:08 GMT 32.879791 -97.049751 0 270 0 0
2021-09-22 13:55:06 GMT 32.879822 -97.049744 0 270 0 0
2021-09-22 13:55:04 GMT 32.879822 -97.049759 0 270 1 0
2021-09-22 13:55:02 GMT 32.879860 -97.049759 0 270 1 0
2021-09-22 13:55:01 GMT 32.879848 -97.049767 0 270 2 0
2021-09-22 13:54:59 GMT 32.879841 -97.049751 0 270 1 0
2021-09-22 13:54:58 GMT 32.879822 -97.049744 0 270 0 0
2021-09-22 13:54:56 GMT 32.879822 -97.049744 0 270 0 0
2021-09-22 13:54:54 GMT 32.879810 -97.049690 0 270 1 0
2021-09-22 13:54:53 GMT 32.879822 -97.049698 0 270 1 0
2021-09-22 13:54:51 GMT 32.879810 -97.049713 0 270 1 0
2021-09-22 13:54:49 GMT 32.879810 -97.049721 0 270 1 0
2021-09-22 13:54:48 GMT 32.879810 -97.049728 0 270 1 0
2021-09-22 13:54:46 GMT 32.879810 -97.049767 0 270 0 0
2021-09-22 13:54:42 GMT 32.879810 -97.049759 0 270 0 0
2021-09-22 13:54:41 GMT 32.879791 -97.049759 0 270 0 0
2021-09-22 13:54:38 GMT 32.879799 -97.049744 0 270 0 0
2021-09-22 13:54:37 GMT 32.879791 -97.049744 0 270 1 0
2021-09-22 13:54:36 GMT 32.879822 -97.049759 0 270 1 0
2021-09-22 13:54:33 GMT 32.879810 -97.049767 0 270 1 0
2021-09-22 13:54:30 GMT 32.879822 -97.049744 0 270 1 0
2021-09-22 13:54:28 GMT 32.879810 -97.049721 0 270 0 0
2021-09-22 13:54:27 GMT 32.879810 -97.049713 0 270 1 0
2021-09-22 13:54:26 GMT 32.879822 -97.049744 0 270 0 0
2021-09-22 13:54:24 GMT 32.879822 -97.049744 0 270 0 0
2021-09-22 13:54:23 GMT 32.879829 -97.049751 0 270 0 0
2021-09-22 13:54:19 GMT 32.879822 -97.049728 0 270 1 0
2021-09-22 13:54:17 GMT 32.879810 -97.049744 0 270 1 0
2021-09-22 13:54:16 GMT 32.879799 -97.049751 0 270 1 0
2021-09-22 13:54:14 GMT 32.879791 -97.049782 0 270 0 0
2021-09-22 13:54:13 GMT 32.879791 -97.049767 0 270 0 0
2021-09-22 13:54:11 GMT 32.879860 -97.049759 0 270 2 0
2021-09-22 13:54:10 GMT 32.879848 -97.049759 0 270 2 0
2021-09-22 13:54:08 GMT 32.879829 -97.049759 0 270 0 0
2021-09-22 13:54:07 GMT 32.879822 -97.049751 0 270 0 0
2021-09-22 13:54:05 GMT 32.879810 -97.049744 0 270 0 0
2021-09-22 13:54:03 GMT 32.879799 -97.049744 0 270 0 0
2021-09-22 13:54:01 GMT 32.879810 -97.049744 0 270 0 0
2021-09-22 13:54:00 GMT 32.879810 -97.049751 0 270 0 0
2021-09-22 13:53:57 GMT 32.879799 -97.049759 0 270 0 0
2021-09-22 13:53:53 GMT 32.879799 -97.049744 0 270 0 0
2021-09-22 13:53:50 GMT 32.879799 -97.049744 0 270 0 0
2021-09-22 13:53:47 GMT 32.879829 -97.049759 0 270 0 0
2021-09-22 13:53:45 GMT 32.879810 -97.049744 0 270 0 0
2021-09-22 13:53:42 GMT 32.879810 -97.049751 0 270 0 0
2021-09-22 13:53:38 GMT 32.879799 -97.049751 0 270 0 0
2021-09-22 13:53:37 GMT 32.879822 -97.049751 0 270 0 0
2021-09-22 13:53:36 GMT 32.879810 -97.049751 0 270 0 0
2021-09-22 13:53:32 GMT 32.879799 -97.049759 0 270 0 0
2021-09-22 13:53:30 GMT 32.879799 -97.049751 0 270 0 0
2021-09-22 13:53:27 GMT 32.879810 -97.049751 0 270 0 0
2021-09-22 13:53:24 GMT 32.879810 -97.049759 0 270 0 0
2021-09-22 13:53:23 GMT 32.879799 -97.049759 0 270 0 0
2021-09-22 13:53:22 GMT 32.879799 -97.049759 0 270 0 0
2021-09-22 13:53:20 GMT 32.879799 -97.049767 0 270 0 0
2021-09-22 13:53:17 GMT 32.879810 -97.049759 0 270 0 0
2021-09-22 13:53:14 GMT 32.879822 -97.049751 0 270 1 0
2021-09-22 13:53:12 GMT 32.879810 -97.049767 0 270 0 0
2021-09-22 13:53:11 GMT 32.879791 -97.049789 0 270 0 0
2021-09-22 13:53:07 GMT 32.879799 -97.049759 0 270 0 0
2021-09-22 13:53:06 GMT 32.879780 -97.049767 0 270 2 0
2021-09-22 13:53:05 GMT 32.879791 -97.049767 0 270 2 0
2021-09-22 13:53:03 GMT 32.879848 -97.049767 0 270 0 0
2021-09-22 13:53:02 GMT 32.879848 -97.049782 0 270 0 0
2021-09-22 13:53:01 GMT 32.879860 -97.049751 0 270 1 0
2021-09-22 13:52:59 GMT 32.879860 -97.049751 0 270 2 0
2021-09-22 13:52:57 GMT 32.879829 -97.049767 0 270 2 0
2021-09-22 13:52:56 GMT 32.879829 -97.049782 0 270 2 0
2021-09-22 13:52:54 GMT 32.879860 -97.049812 0 270 1 0
2021-09-22 13:52:51 GMT 32.879860 -97.049789 0 270 1 0
2021-09-22 13:52:48 GMT 32.879829 -97.049759 0 270 0 0
2021-09-22 13:52:47 GMT 32.879829 -97.049782 0 270 1 0
2021-09-22 13:52:45 GMT 32.879841 -97.049767 0 270 1 0
2021-09-22 13:52:44 GMT 32.879829 -97.049759 0 270 1 0
2021-09-22 13:52:41 GMT 32.879791 -97.049759 0 270 0 0
2021-09-22 13:52:40 GMT 32.879780 -97.049767 0 270 1 0
2021-09-22 13:52:38 GMT 32.879768 -97.049767 0 270 2 0
2021-09-22 13:52:36 GMT 32.879810 -97.049751 0 270 0 0
2021-09-22 13:52:34 GMT 32.879822 -97.049744 0 270 0 0
2021-09-22 13:52:33 GMT 32.879829 -97.049751 0 271 2 0
2021-09-22 13:52:32 GMT 32.879822 -97.049759 0 271 0 0
2021-09-22 13:52:31 GMT 32.879799 -97.049759 0 273 0 0
2021-09-22 13:52:29 GMT 32.879791 -97.049751 0 279 0 0
2021-09-22 13:52:27 GMT 32.879780 -97.049759 0 293 1 0
2021-09-22 13:52:26 GMT 32.879780 -97.049751 0 315 2 0
2021-09-22 13:52:24 GMT 32.879810 -97.049751 0 356 1 0
2021-09-22 13:52:23 GMT 32.879860 -97.049744 0 356 8 0
2021-09-22 13:52:22 GMT 32.879860 -97.049789 0 337 9 0
2021-09-22 13:52:20 GMT 32.879841 -97.049767 0 296 10 0
2021-09-22 13:52:18 GMT 32.879669 -97.049797 0 266 4 0
2021-09-22 13:52:17 GMT 32.879700 -97.049759 0 266 1 0
2021-09-22 13:52:16 GMT 32.879700 -97.049751 0 262 2 0
2021-09-22 13:52:14 GMT 32.879700 -97.049751 0 257 3 0
2021-09-22 13:52:13 GMT 32.879711 -97.049789 0 248 5 0
2021-09-22 13:52:11 GMT 32.879730 -97.049751 0 246 8 0
2021-09-22 13:52:10 GMT 32.879711 -97.049721 0 249 9 0
2021-09-22 13:52:09 GMT 32.879822 -97.049637 0 277 9 0
2021-09-22 13:52:07 GMT 32.879799 -97.049606 0 272 10 0
2021-09-22 13:52:05 GMT 32.879791 -97.049522 0 269 13 0
2021-09-22 13:52:04 GMT 32.879780 -97.049438 0 266 13 0
2021-09-22 13:52:02 GMT 32.879799 -97.049294 0 271 13 0
2021-09-22 13:52:01 GMT 32.879799 -97.049217 0 275 13 0
2021-09-22 13:52:00 GMT 32.879791 -97.049080 0 273 12 0
2021-09-22 13:51:58 GMT 32.879791 -97.048950 0 272 13 0
2021-09-22 13:51:56 GMT 32.879768 -97.048889 0 269 14 0
2021-09-22 13:51:55 GMT 32.879761 -97.048737 0 259 14 0
2021-09-22 13:51:53 GMT 32.879742 -97.048683 0 252 15 0
2021-09-22 13:51:52 GMT 32.879768 -97.048576 0 256 14 0
2021-09-22 13:51:50 GMT 32.879848 -97.048431 0 256 10 0
2021-09-22 13:51:48 GMT 32.879841 -97.048317 0 228 9 0
2021-09-22 13:51:47 GMT 32.879860 -97.048248 0 221 7 0
2021-09-22 13:51:46 GMT 32.879890 -97.048210 0 216 7 0
2021-09-22 13:51:45 GMT 32.879940 -97.048149 0 189 8 0
2021-09-22 13:51:43 GMT 32.879940 -97.048119 0 185 12 0
2021-09-22 13:51:42 GMT 32.880009 -97.048111 0 188 10 0
2021-09-22 13:51:40 GMT 32.880119 -97.048088 0 181 10 0
2021-09-22 13:51:39 GMT 32.880150 -97.048080 0 182 13 0
2021-09-22 13:51:38 GMT 32.880230 -97.048103 0 184 18 0
2021-09-22 13:51:36 GMT 32.880291 -97.048073 0 179 21 0
2021-09-22 13:51:34 GMT 32.880470 -97.048080 0 178 25 0
2021-09-22 13:51:33 GMT 32.880600 -97.048080 0 178 24 0
2021-09-22 13:51:31 GMT 32.880920 -97.048088 0 180 25 0
2021-09-22 13:51:29 GMT 32.881031 -97.048103 0 181 25 0
2021-09-22 13:51:28 GMT 32.881149 -97.048080 0 178 24 0
2021-09-22 13:51:26 GMT 32.881359 -97.048088 0 179 25 0
2021-09-22 13:51:25 GMT 32.881451 -97.048103 0 181 29 0
2021-09-22 13:51:23 GMT 32.881721 -97.048088 0 181 28 0
2021-09-22 13:51:22 GMT 32.881851 -97.048080 0 180 27 0
2021-09-22 13:51:20 GMT 32.882099 -97.048073 0 177 28 0
2021-09-22 13:51:19 GMT 32.882229 -97.048088 0 179 28 0
2021-09-22 13:51:18 GMT 32.882500 -97.048088 0 182 26 0
2021-09-22 13:51:16 GMT 32.882591 -97.048088 0 182 29 0
2021-09-22 13:51:14 GMT 32.882851 -97.048042 0 178 30 0
2021-09-22 13:51:13 GMT 32.883011 -97.048019 0 173 29 0
2021-09-22 13:51:11 GMT 32.883270 -97.048088 0 183 28 0
2021-09-22 13:51:10 GMT 32.883430 -97.048058 0 179 25 0
2021-09-22 13:51:09 GMT 32.883511 -97.048058 0 176 30 0
2021-09-22 13:51:07 GMT 32.883759 -97.048050 0 177 31 0
2021-09-22 13:51:06 GMT 32.883881 -97.048058 0 180 31 0
2021-09-22 13:51:04 GMT 32.884190 -97.048088 0 189 28 0
2021-09-22 13:51:02 GMT 32.884441 -97.048073 0 195 29 0
2021-09-22 13:51:01 GMT 32.884579 -97.048019 0 196 26 0
2021-09-22 13:51:00 GMT 32.884819 -97.047943 0 196 25 0
2021-09-22 13:50:58 GMT 32.884930 -97.047897 0 197 26 0
2021-09-22 13:50:56 GMT 32.885120 -97.047791 0 187 28 0
2021-09-22 13:50:55 GMT 32.885250 -97.047760 0 184 28 0
2021-09-22 13:50:53 GMT 32.885509 -97.047729 0 183 28 0
2021-09-22 13:50:52 GMT 32.885658 -97.047707 0 182 27 0
2021-09-22 13:50:50 GMT 32.885910 -97.047691 0 177 26 0
2021-09-22 13:50:49 GMT 32.886021 -97.047699 0 179 30 0
2021-09-22 13:50:48 GMT 32.886162 -97.047707 0 181 29 0
2021-09-22 13:50:46 GMT 32.886429 -97.047691 0 180 30 0
2021-09-22 13:50:45 GMT 32.886700 -97.047699 0 181 32 0
2021-09-22 13:50:43 GMT 32.886860 -97.047668 0 177 29 0
2021-09-22 13:50:42 GMT 32.887150 -97.047684 0 177 25 0
2021-09-22 13:50:40 GMT 32.887260 -97.047707 0 182 27 0
2021-09-22 13:50:39 GMT 32.887501 -97.047691 0 178 30 0
2021-09-22 13:50:37 GMT 32.887650 -97.047707 0 181 29 0
2021-09-22 13:50:36 GMT 32.887760 -97.047699 0 181 31 0
2021-09-22 13:50:34 GMT 32.888062 -97.047691 0 180 29 0
2021-09-22 13:50:33 GMT 32.888199 -97.047691 0 181 29 0
2021-09-22 13:50:31 GMT 32.888481 -97.047699 0 183 28 0
2021-09-22 13:50:30 GMT 32.888618 -97.047684 0 181 27 0
2021-09-22 13:50:28 GMT 32.888882 -97.047668 0 182 28 0
2021-09-22 13:50:27 GMT 32.889019 -97.047661 0 179 28 0
2021-09-22 13:50:26 GMT 32.889278 -97.047668 0 180 27 0
2021-09-22 13:50:24 GMT 32.889400 -97.047653 0 178 27 0
2021-09-22 13:50:22 GMT 32.889660 -97.047653 0 178 26 0
2021-09-22 13:50:20 GMT 32.889912 -97.047661 0 177 25 0
2021-09-22 13:50:18 GMT 32.890148 -97.047668 0 177 26 0
2021-09-22 13:50:16 GMT 32.890400 -97.047699 0 183 26 0
2021-09-22 13:50:15 GMT 32.890530 -97.047684 0 182 24 0
2021-09-22 13:50:13 GMT 32.890759 -97.047661 0 178 25 0
2021-09-22 13:50:12 GMT 32.890881 -97.047661 0 177 25 0
2021-09-22 13:50:11 GMT 32.891109 -97.047661 0 175 24 0
2021-09-22 13:50:09 GMT 32.891232 -97.047684 0 177 23 0
2021-09-22 13:50:08 GMT 32.891331 -97.047691 0 178 24 0
2021-09-22 13:50:06 GMT 32.891571 -97.047729 0 186 23 0
2021-09-22 13:50:05 GMT 32.891682 -97.047707 0 185 22 0
2021-09-22 13:50:04 GMT 32.891899 -97.047661 0 179 20 0
2021-09-22 13:50:02 GMT 32.891991 -97.047661 0 177 20 0
2021-09-22 13:50:01 GMT 32.892200 -97.047661 0 175 18 0
2021-09-22 13:49:59 GMT 32.892281 -97.047668 0 179 18 0
2021-09-22 13:49:57 GMT 32.892448 -97.047699 0 184 20 0
2021-09-22 13:49:56 GMT 32.892559 -97.047661 0 177 17 0
2021-09-22 13:49:55 GMT 32.892719 -97.047668 0 180 18 0
2021-09-22 13:49:52 GMT 32.892879 -97.047661 0 178 19 0
2021-09-22 13:49:50 GMT 32.893040 -97.047684 0 181 22 0
2021-09-22 13:49:49 GMT 32.893120 -97.047691 0 182 24 0
2021-09-22 13:49:48 GMT 32.893360 -97.047691 0 185 23 0
2021-09-22 13:49:46 GMT 32.893452 -97.047661 0 179 24 0
2021-09-22 13:49:44 GMT 32.893688 -97.047661 0 178 24 0
2021-09-22 13:49:43 GMT 32.893909 -97.047684 0 179 23 0
2021-09-22 13:49:41 GMT 32.894001 -97.047668 0 178 24 0
2021-09-22 13:49:40 GMT 32.894119 -97.047668 0 177 23 0
2021-09-22 13:49:39 GMT 32.894199 -97.047691 0 180 26 0
2021-09-22 13:49:37 GMT 32.894428 -97.047691 0 181 27 0
2021-09-22 13:49:36 GMT 32.894562 -97.047691 0 182 26 0
2021-09-22 13:49:34 GMT 32.894798 -97.047661 0 178 26 0
2021-09-22 13:49:33 GMT 32.895020 -97.047653 0 176 28 0
2021-09-22 13:49:30 GMT 32.895401 -97.047668 0 178 24 0
2021-09-22 13:49:28 GMT 32.895531 -97.047668 0 179 23 0
2021-09-22 13:49:26 GMT 32.895729 -97.047668 0 180 23 0
2021-09-22 13:49:25 GMT 32.895851 -97.047638 0 176 22 0
2021-09-22 13:49:23 GMT 32.896069 -97.047661 0 176 20 0
2021-09-22 13:49:22 GMT 32.896160 -97.047684 0 179 20 0
2021-09-22 13:49:21 GMT 32.896229 -97.047691 0 183 25 0
2021-09-22 13:49:19 GMT 32.896500 -97.047653 0 173 19 0
2021-09-22 13:49:18 GMT 32.896660 -97.047729 0 191 20 0
2021-09-22 13:49:16 GMT 32.896759 -97.047707 0 189 20 0
2021-09-22 13:49:15 GMT 32.896931 -97.047653 0 182 21 0
2021-09-22 13:49:13 GMT 32.897018 -97.047653 0 180 22 0
2021-09-22 13:49:12 GMT 32.897221 -97.047630 0 176 21 0
2021-09-22 13:49:10 GMT 32.897331 -97.047668 0 182 19 0
2021-09-22 13:49:09 GMT 32.897411 -97.047661 0 180 20 0
2021-09-22 13:49:07 GMT 32.897598 -97.047653 0 176 19 0
2021-09-22 13:49:05 GMT 32.897781 -97.047668 0 183 19 0
2021-09-22 13:49:04 GMT 32.897839 -97.047661 0 183 21 0
2021-09-22 13:49:03 GMT 32.897949 -97.047668 0 185 20 0
2021-09-22 13:49:01 GMT 32.898159 -97.047638 0 181 16 0
2021-09-22 13:48:59 GMT 32.898300 -97.047592 0 173 18 0
2021-09-22 13:48:58 GMT 32.898392 -97.047577 0 166 18 0
2021-09-22 13:48:56 GMT 32.898540 -97.047661 0 180 18 0
2021-09-22 13:48:55 GMT 32.898621 -97.047668 0 183 19 0
2021-09-22 13:48:53 GMT 32.898781 -97.047638 0 179 22 0
2021-09-22 13:48:52 GMT 32.898918 -97.047661 0 183 17 0
2021-09-22 13:48:50 GMT 32.899078 -97.047661 0 186 18 0
2021-09-22 13:48:49 GMT 32.899151 -97.047638 0 182 20 0
2021-09-22 13:48:47 GMT 32.899361 -97.047607 0 175 16 0
2021-09-22 13:48:46 GMT 32.899441 -97.047630 0 181 16 0
2021-09-22 13:48:44 GMT 32.899601 -97.047623 0 179 15 0
2021-09-22 13:48:42 GMT 32.899731 -97.047600 0 175 18 0
2021-09-22 13:48:40 GMT 32.899899 -97.047607 0 173 18 0
2021-09-22 13:48:39 GMT 32.900059 -97.047653 0 182 21 0
2021-09-22 13:48:37 GMT 32.900139 -97.047630 0 179 23 0
2021-09-22 13:48:36 GMT 32.900230 -97.047638 0 179 26 0
2021-09-22 13:48:34 GMT 32.900478 -97.047638 0 183 23 0
2021-09-22 13:48:33 GMT 32.900688 -97.047630 0 178 25 0
2021-09-22 13:48:31 GMT 32.900810 -97.047630 0 178 24 0
2021-09-22 13:48:29 GMT 32.901009 -97.047638 0 182 27 0
2021-09-22 13:48:27 GMT 32.901249 -97.047630 0 180 25 0
2021-09-22 13:48:25 GMT 32.901489 -97.047623 0 179 24 0
2021-09-22 13:48:24 GMT 32.901611 -97.047638 0 181 23 0
2021-09-22 13:48:23 GMT 32.901711 -97.047630 0 180 24 0
2021-09-22 13:48:21 GMT 32.901920 -97.047630 0 180 24 0
2021-09-22 13:48:19 GMT 32.902142 -97.047623 0 182 26 0
2021-09-22 13:48:18 GMT 32.902271 -97.047623 0 183 25 0
2021-09-22 13:48:17 GMT 32.902382 -97.047600 0 179 26 0
2021-09-22 13:48:14 GMT 32.902740 -97.047607 0 179 28 0
2021-09-22 13:48:12 GMT 32.902969 -97.047607 0 177 30 0
2021-09-22 13:48:11 GMT 32.903118 -97.047607 0 177 29 0
2021-09-22 13:48:09 GMT 32.903370 -97.047623 0 178 31 0
2021-09-22 13:48:08 GMT 32.903530 -97.047653 0 182 29 0
2021-09-22 13:48:07 GMT 32.903660 -97.047638 0 181 29 0
2021-09-22 13:48:05 GMT 32.903919 -97.047638 0 182 32 0
2021-09-22 13:48:04 GMT 32.904240 -97.047607 0 179 27 0
2021-09-22 13:48:02 GMT 32.904369 -97.047607 0 180 28 0
2021-09-22 13:48:01 GMT 32.904621 -97.047607 0 179 29 0
2021-09-22 13:47:58 GMT 32.904888 -97.047623 0 181 28 0
2021-09-22 13:47:57 GMT 32.905010 -97.047607 0 180 28 0
2021-09-22 13:47:56 GMT 32.905258 -97.047600 0 178 31 0
2021-09-22 13:47:54 GMT 32.905411 -97.047600 0 178 30 0
2021-09-22 13:47:53 GMT 32.905548 -97.047630 0 183 30 0
2021-09-22 13:47:51 GMT 32.905842 -97.047607 0 184 29 0
2021-09-22 13:47:50 GMT 32.906090 -97.047569 0 179 28 0
2021-09-22 13:47:48 GMT 32.906219 -97.047569 0 178 28 0
2021-09-22 13:47:46 GMT 32.906479 -97.047562 0 174 27 0
2021-09-22 13:47:45 GMT 32.906601 -97.047577 0 175 28 0
2021-09-22 13:47:44 GMT 32.906750 -97.047607 0 179 25 0
2021-09-22 13:47:42 GMT 32.906979 -97.047607 0 179 24 0
2021-09-22 13:47:41 GMT 32.907200 -97.047607 0 180 24 0
2021-09-22 13:47:39 GMT 32.907330 -97.047600 0 176 22 0
2021-09-22 13:47:37 GMT 32.907532 -97.047638 0 187 21 0
2021-09-22 13:47:36 GMT 32.907639 -97.047630 0 188 19 0
2021-09-22 13:47:35 GMT 32.907719 -97.047607 0 187 20 0
2021-09-22 13:47:33 GMT 32.907902 -97.047531 0 171 24 0
2021-09-22 13:47:32 GMT 32.908039 -97.047577 0 177 19 0
2021-09-22 13:47:31 GMT 32.908150 -97.047600 0 177 17 0
2021-09-22 13:47:29 GMT 32.908310 -97.047592 0 174 18 0
2021-09-22 13:47:28 GMT 32.908482 -97.047607 0 183 17 0
2021-09-22 13:47:26 GMT 32.908562 -97.047600 0 187 16 0
2021-09-22 13:47:24 GMT 32.908680 -97.047577 0 197 16 0
2021-09-22 13:47:23 GMT 32.908772 -97.047600 0 216 16 0
2021-09-22 13:47:21 GMT 32.908890 -97.047493 0 229 15 0
2021-09-22 13:47:20 GMT 32.908951 -97.047447 0 242 16 0
2021-09-22 13:47:19 GMT 32.909000 -97.047379 0 251 16 0
2021-09-22 13:47:17 GMT 32.909081 -97.047241 0 268 17 0
2021-09-22 13:47:16 GMT 32.909069 -97.047150 0 265 18 0
2021-09-22 13:47:14 GMT 32.909088 -97.046967 0 268 19 0
2021-09-22 13:47:13 GMT 32.909088 -97.046867 0 267 20 0
2021-09-22 13:47:11 GMT 32.909111 -97.046638 0 277 17 0
2021-09-22 13:47:10 GMT 32.909100 -97.046570 0 276 19 0
2021-09-22 13:47:08 GMT 32.909100 -97.046341 0 291 15 0
2021-09-22 13:47:07 GMT 32.909069 -97.046211 0 297 17 0
2021-09-22 13:47:05 GMT 32.909019 -97.046112 0 297 15 0
2021-09-22 13:47:04 GMT 32.908989 -97.046021 0 303 14 0
2021-09-22 13:47:02 GMT 32.908932 -97.045883 0 313 13 0
2021-09-22 13:47:01 GMT 32.908890 -97.045807 0 317 11
2021-09-22 13:46:59 GMT 32.908798 -97.045700 0 322 9
2021-09-22 13:46:58 GMT 32.908760 -97.045670 0 321 8
2021-09-22 13:46:57 GMT 32.908718 -97.045624 0 320 11
2021-09-22 13:46:55 GMT 32.908630 -97.045532 0 318 6
2021-09-22 13:46:53 GMT 32.908581 -97.045502 0 318 6
2021-09-22 13:46:52 GMT 32.908520 -97.045471 0 314 3
2021-09-22 13:46:51 GMT 32.908489 -97.045464 0 312 3
2021-09-22 13:46:49 GMT 32.908470 -97.045464 0 312 3
2021-09-22 13:46:47 GMT 32.908440 -97.045387 0 312 0
2021-09-22 13:46:46 GMT 32.908440 -97.045380 0 312 0
2021-09-22 13:46:44 GMT 32.908440 -97.045387 0 312 1
2021-09-22 13:46:43 GMT 32.908459 -97.045387 0 312 0
2021-09-22 13:46:41 GMT 32.908459 -97.045380 0 312 0
2021-09-22 13:46:40 GMT 32.908459 -97.045403 0 312 1
2021-09-22 13:46:38 GMT 32.908440 -97.045380 0 315 2
2021-09-22 13:46:37 GMT 32.908459 -97.045372 0 315 0
2021-09-22 13:46:35 GMT 32.908470 -97.045380 0 315 0
2021-09-22 13:46:34 GMT 32.908470 -97.045380 0 314 0
2021-09-22 13:46:32 GMT 32.908470 -97.045372 0 313 1
2021-09-22 13:46:31 GMT 32.908451 -97.045372 0 313 2
2021-09-22 13:46:29 GMT 32.908470 -97.045380 0 312 1
2021-09-22 13:46:28 GMT 32.908451 -97.045372 0 312 1
2021-09-22 13:46:26 GMT 32.908459 -97.045418 0 312 6
2021-09-22 13:46:25 GMT 32.908459 -97.045357 0 316 5
2021-09-22 13:46:23 GMT 32.908451 -97.045380 0 308 10
2021-09-22 13:46:22 GMT 32.908421 -97.045341 0 306 11
2021-09-22 13:46:20 GMT 32.908360 -97.045280 0 302 12
2021-09-22 13:46:19 GMT 32.908310 -97.045242 0 298 13
2021-09-22 13:46:18 GMT 32.908230 -97.045128 0 292 12

Making use of Plane Finder data

You are free to use the raw flight data, aircraft information and images provided in this report for your own purposes provided the data is correctly attributed to Plane Finder. We ask that you please credit Plane Finder and link to planefinder.net in close proximity to the content.

Optionally one of the following logos (no smaller then 150x24px) can be used and must link to planefinder.net

Embedding the Plane Finder map

You are welcome to embed the Plane Finder playback map on your website to offer visitors a more interactive experience. We suggest using the following HTML code:

<iframe src="//planefinder.net/data/report/AA4246-N212NN-7700-squawk-2021-09-22/map" width="800" height="600" seamless="seamless"></iframe>

Where our data comes from

Plane Finder has a global network of data feeds and antenna radars that receive data broadcast directly from aircraft. The primary technologies used are ADS-B and MLAT. We also show feeds from the FAA and a FLARM glider feed.

Click here to find out more about the Plane Finder network.

How we collect our data